﻿<?xml version="1.0" encoding="UTF-8"?>
<gpx version="1.1" creator="KDR GPS Tracker 2.67 Rev.4"
 xmlns:xsi="http://www.w3.org/2001/XMLSchema-instance"
 xmlns="http://www.topografix.com/GPX/1/1"
 xsi:schemaLocation="http://www.topografix.com/GPX/1/1 http://www.topografix.com/GPX/1/1/gpx.xsd">
<metadata>
 <bounds minlat="49.970445" minlon="11.025349" maxlat="50.237224" maxlon="11.494704"/>
</metadata>
<trk>
<name>Trk08011504</name>
<desc>GPS-Track</desc>
<trkseg>
<trkpt lat="49.972466" lon="11.031349"><ele>307</ele><time>2010-08-01T13:12:41Z</time></trkpt>
<trkpt lat="49.972563" lon="11.031418"><ele>301</ele><time>2010-08-01T13:12:43Z</time></trkpt>
<trkpt lat="49.972519" lon="11.031381"><ele>304</ele><time>2010-08-01T13:12:56Z</time></trkpt>
<trkpt lat="49.972508" lon="11.031365"><ele>304</ele><time>2010-08-01T13:12:58Z</time></trkpt>
<trkpt lat="49.972508" lon="11.031361"><ele>304</ele><time>2010-08-01T13:12:59Z</time></trkpt>
<trkpt lat="49.972499" lon="11.031354"><ele>304</ele><time>2010-08-01T13:13:00Z</time></trkpt>
<trkpt lat="49.972473" lon="11.031331"><ele>302</ele><time>2010-08-01T13:13:01Z</time></trkpt>
<trkpt lat="49.972481" lon="11.031181"><ele>301</ele><time>2010-08-01T13:13:03Z</time></trkpt>
<trkpt lat="49.972557" lon="11.030951"><ele>301</ele><time>2010-08-01T13:13:05Z</time></trkpt>
<trkpt lat="49.972572" lon="11.030807"><ele>300</ele><time>2010-08-01T13:13:06Z</time></trkpt>
<trkpt lat="49.972671" lon="11.030160"><ele>299</ele><time>2010-08-01T13:13:10Z</time></trkpt>
<trkpt lat="49.972737" lon="11.029755"><ele>297</ele><time>2010-08-01T13:13:12Z</time></trkpt>
<trkpt lat="49.972871" lon="11.029058"><ele>296</ele><time>2010-08-01T13:13:16Z</time></trkpt>
<trkpt lat="49.972925" lon="11.028881"><ele>293</ele><time>2010-08-01T13:13:17Z</time></trkpt>
<trkpt lat="49.973028" lon="11.028584"><ele>293</ele><time>2010-08-01T13:13:19Z</time></trkpt>
<trkpt lat="49.973106" lon="11.028404"><ele>293</ele><time>2010-08-01T13:13:22Z</time></trkpt>
<trkpt lat="49.973106" lon="11.028394"><ele>293</ele><time>2010-08-01T13:13:23Z</time></trkpt>
<trkpt lat="49.973101" lon="11.028317"><ele>293</ele><time>2010-08-01T13:13:24Z</time></trkpt>
<trkpt lat="49.973009" lon="11.028211"><ele>293</ele><time>2010-08-01T13:13:26Z</time></trkpt>
<trkpt lat="49.972951" lon="11.028119"><ele>293</ele><time>2010-08-01T13:13:27Z</time></trkpt>
<trkpt lat="49.972796" lon="11.027903"><ele>292</ele><time>2010-08-01T13:13:29Z</time></trkpt>
<trkpt lat="49.972665" lon="11.027769"><ele>292</ele><time>2010-08-01T13:13:30Z</time></trkpt>
<trkpt lat="49.972198" lon="11.027330"><ele>291</ele><time>2010-08-01T13:13:33Z</time></trkpt>
<trkpt lat="49.972037" lon="11.027179"><ele>290</ele><time>2010-08-01T13:13:34Z</time></trkpt>
<trkpt lat="49.971481" lon="11.026600"><ele>288</ele><time>2010-08-01T13:13:38Z</time></trkpt>
<trkpt lat="49.971036" lon="11.026067"><ele>287</ele><time>2010-08-01T13:13:42Z</time></trkpt>
<trkpt lat="49.970831" lon="11.025849"><ele>287</ele><time>2010-08-01T13:13:44Z</time></trkpt>
<trkpt lat="49.970567" lon="11.025559"><ele>286</ele><time>2010-08-01T13:13:48Z</time></trkpt>
<trkpt lat="49.970565" lon="11.025520"><ele>284</ele><time>2010-08-01T13:13:49Z</time></trkpt>
<trkpt lat="49.970637" lon="11.025533"><ele>285</ele><time>2010-08-01T13:13:50Z</time></trkpt>
<trkpt lat="49.970658" lon="11.025519"><ele>285</ele><time>2010-08-01T13:13:51Z</time></trkpt>
<trkpt lat="49.970674" lon="11.025508"><ele>285</ele><time>2010-08-01T13:13:52Z</time></trkpt>
<trkpt lat="49.970678" lon="11.025474"><ele>284</ele><time>2010-08-01T13:13:56Z</time></trkpt>
<trkpt lat="49.970678" lon="11.025474"><ele>284</ele><time>2010-08-01T13:13:57Z</time></trkpt>
<trkpt lat="49.970677" lon="11.025459"><ele>284</ele><time>2010-08-01T13:13:59Z</time></trkpt>
<trkpt lat="49.970694" lon="11.025471"><ele>284</ele><time>2010-08-01T13:14:02Z</time></trkpt>
<trkpt lat="49.970687" lon="11.025465"><ele>284</ele><time>2010-08-01T13:14:03Z</time></trkpt>
<trkpt lat="49.970690" lon="11.025464"><ele>285</ele><time>2010-08-01T13:14:11Z</time></trkpt>
<trkpt lat="49.970682" lon="11.025457"><ele>285</ele><time>2010-08-01T13:14:12Z</time></trkpt>
<trkpt lat="49.970670" lon="11.025459"><ele>285</ele><time>2010-08-01T13:14:14Z</time></trkpt>
<trkpt lat="49.970665" lon="11.025464"><ele>285</ele><time>2010-08-01T13:14:16Z</time></trkpt>
<trkpt lat="49.970671" lon="11.025476"><ele>285</ele><time>2010-08-01T13:14:19Z</time></trkpt>
<trkpt lat="49.970665" lon="11.025478"><ele>284</ele><time>2010-08-01T13:14:20Z</time></trkpt>
<trkpt lat="49.970651" lon="11.025478"><ele>284</ele><time>2010-08-01T13:14:23Z</time></trkpt>
<trkpt lat="49.970658" lon="11.025451"><ele>283</ele><time>2010-08-01T13:14:24Z</time></trkpt>
<trkpt lat="49.970654" lon="11.025442"><ele>282</ele><time>2010-08-01T13:14:30Z</time></trkpt>
<trkpt lat="49.970657" lon="11.025438"><ele>282</ele><time>2010-08-01T13:14:31Z</time></trkpt>
<trkpt lat="49.970632" lon="11.025393"><ele>282</ele><time>2010-08-01T13:15:35Z</time></trkpt>
<trkpt lat="49.970586" lon="11.025482"><ele>279</ele><time>2010-08-01T13:18:23Z</time></trkpt>
<trkpt lat="49.970584" lon="11.025457"><ele>280</ele><time>2010-08-01T13:18:24Z</time></trkpt>
<trkpt lat="49.970589" lon="11.025362"><ele>283</ele><time>2010-08-01T13:18:26Z</time></trkpt>
<trkpt lat="49.970568" lon="11.025355"><ele>287</ele><time>2010-08-01T13:18:27Z</time></trkpt>
<trkpt lat="49.970523" lon="11.025349"><ele>290</ele><time>2010-08-01T13:18:29Z</time></trkpt>
<trkpt lat="49.970507" lon="11.025367"><ele>291</ele><time>2010-08-01T13:18:30Z</time></trkpt>
<trkpt lat="49.970470" lon="11.025411"><ele>291</ele><time>2010-08-01T13:18:32Z</time></trkpt>
<trkpt lat="49.970445" lon="11.025479"><ele>292</ele><time>2010-08-01T13:18:33Z</time></trkpt>
<trkpt lat="49.970485" lon="11.025628"><ele>292</ele><time>2010-08-01T13:18:35Z</time></trkpt>
<trkpt lat="49.970518" lon="11.025697"><ele>291</ele><time>2010-08-01T13:18:36Z</time></trkpt>
<trkpt lat="49.970584" lon="11.025774"><ele>291</ele><time>2010-08-01T13:18:37Z</time></trkpt>
<trkpt lat="49.970643" lon="11.025845"><ele>291</ele><time>2010-08-01T13:18:38Z</time></trkpt>
<trkpt lat="49.970746" lon="11.025943"><ele>292</ele><time>2010-08-01T13:18:39Z</time></trkpt>
<trkpt lat="49.971090" lon="11.026281"><ele>292</ele><time>2010-08-01T13:18:42Z</time></trkpt>
<trkpt lat="49.971316" lon="11.026529"><ele>292</ele><time>2010-08-01T13:18:44Z</time></trkpt>
<trkpt lat="49.972007" lon="11.027265"><ele>292</ele><time>2010-08-01T13:18:49Z</time></trkpt>
<trkpt lat="49.972566" lon="11.027851"><ele>294</ele><time>2010-08-01T13:18:53Z</time></trkpt>
<trkpt lat="49.973298" lon="11.028753"><ele>295</ele><time>2010-08-01T13:18:59Z</time></trkpt>
<trkpt lat="49.973428" lon="11.028872"><ele>295</ele><time>2010-08-01T13:19:00Z</time></trkpt>
<trkpt lat="49.973580" lon="11.028964"><ele>295</ele><time>2010-08-01T13:19:01Z</time></trkpt>
<trkpt lat="49.974155" lon="11.029266"><ele>294</ele><time>2010-08-01T13:19:05Z</time></trkpt>
<trkpt lat="49.974722" lon="11.029481"><ele>296</ele><time>2010-08-01T13:19:09Z</time></trkpt>
<trkpt lat="49.974964" lon="11.029613"><ele>298</ele><time>2010-08-01T13:19:11Z</time></trkpt>
<trkpt lat="49.975186" lon="11.029796"><ele>298</ele><time>2010-08-01T13:19:13Z</time></trkpt>
<trkpt lat="49.975653" lon="11.030227"><ele>298</ele><time>2010-08-01T13:19:18Z</time></trkpt>
<trkpt lat="49.975741" lon="11.030358"><ele>298</ele><time>2010-08-01T13:19:19Z</time></trkpt>
<trkpt lat="49.975899" lon="11.030700"><ele>299</ele><time>2010-08-01T13:19:21Z</time></trkpt>
<trkpt lat="49.975960" lon="11.030895"><ele>299</ele><time>2010-08-01T13:19:22Z</time></trkpt>
<trkpt lat="49.976068" lon="11.031466"><ele>299</ele><time>2010-08-01T13:19:25Z</time></trkpt>
<trkpt lat="49.976190" lon="11.032211"><ele>300</ele><time>2010-08-01T13:19:29Z</time></trkpt>
<trkpt lat="49.976259" lon="11.032846"><ele>300</ele><time>2010-08-01T13:19:32Z</time></trkpt>
<trkpt lat="49.976294" lon="11.033648"><ele>300</ele><time>2010-08-01T13:19:36Z</time></trkpt>
<trkpt lat="49.976441" lon="11.034675"><ele>302</ele><time>2010-08-01T13:19:41Z</time></trkpt>
<trkpt lat="49.976544" lon="11.035051"><ele>304</ele><time>2010-08-01T13:19:43Z</time></trkpt>
<trkpt lat="49.976847" lon="11.035709"><ele>304</ele><time>2010-08-01T13:19:47Z</time></trkpt>
<trkpt lat="49.977176" lon="11.036343"><ele>304</ele><time>2010-08-01T13:19:51Z</time></trkpt>
<trkpt lat="49.977613" lon="11.037171"><ele>304</ele><time>2010-08-01T13:19:56Z</time></trkpt>
<trkpt lat="49.977838" lon="11.037496"><ele>303</ele><time>2010-08-01T13:19:58Z</time></trkpt>
<trkpt lat="49.978434" lon="11.038250"><ele>302</ele><time>2010-08-01T13:20:03Z</time></trkpt>
<trkpt lat="49.979071" lon="11.039214"><ele>299</ele><time>2010-08-01T13:20:09Z</time></trkpt>
<trkpt lat="49.979565" lon="11.040084"><ele>300</ele><time>2010-08-01T13:20:14Z</time></trkpt>
<trkpt lat="49.979960" lon="11.040942"><ele>302</ele><time>2010-08-01T13:20:18Z</time></trkpt>
<trkpt lat="49.980373" lon="11.041946"><ele>304</ele><time>2010-08-01T13:20:23Z</time></trkpt>
<trkpt lat="49.980644" lon="11.042946"><ele>305</ele><time>2010-08-01T13:20:28Z</time></trkpt>
<trkpt lat="49.980861" lon="11.043515"><ele>305</ele><time>2010-08-01T13:20:31Z</time></trkpt>
<trkpt lat="49.980939" lon="11.043678"><ele>305</ele><time>2010-08-01T13:20:32Z</time></trkpt>
<trkpt lat="49.981220" lon="11.044229"><ele>306</ele><time>2010-08-01T13:20:36Z</time></trkpt>
<trkpt lat="49.981309" lon="11.044513"><ele>306</ele><time>2010-08-01T13:20:38Z</time></trkpt>
<trkpt lat="49.981337" lon="11.044902"><ele>306</ele><time>2010-08-01T13:20:40Z</time></trkpt>
<trkpt lat="49.981427" lon="11.045936"><ele>307</ele><time>2010-08-01T13:20:45Z</time></trkpt>
<trkpt lat="49.981568" lon="11.046775"><ele>309</ele><time>2010-08-01T13:20:49Z</time></trkpt>
<trkpt lat="49.981648" lon="11.047449"><ele>310</ele><time>2010-08-01T13:20:52Z</time></trkpt>
<trkpt lat="49.981690" lon="11.048150"><ele>312</ele><time>2010-08-01T13:20:55Z</time></trkpt>
<trkpt lat="49.981667" lon="11.049115"><ele>314</ele><time>2010-08-01T13:20:59Z</time></trkpt>
<trkpt lat="49.981605" lon="11.049840"><ele>316</ele><time>2010-08-01T13:21:02Z</time></trkpt>
<trkpt lat="49.981476" lon="11.050648"><ele>318</ele><time>2010-08-01T13:21:05Z</time></trkpt>
<trkpt lat="49.981344" lon="11.051257"><ele>319</ele><time>2010-08-01T13:21:07Z</time></trkpt>
<trkpt lat="49.981075" lon="11.052399"><ele>321</ele><time>2010-08-01T13:21:10Z</time></trkpt>
<trkpt lat="49.980939" lon="11.052892"><ele>321</ele><time>2010-08-01T13:21:11Z</time></trkpt>
<trkpt lat="49.980581" lon="11.053853"><ele>322</ele><time>2010-08-01T13:21:13Z</time></trkpt>
<trkpt lat="49.979871" lon="11.055913"><ele>323</ele><time>2010-08-01T13:21:17Z</time></trkpt>
<trkpt lat="49.979452" lon="11.057381"><ele>324</ele><time>2010-08-01T13:21:20Z</time></trkpt>
<trkpt lat="49.979037" lon="11.059356"><ele>326</ele><time>2010-08-01T13:21:24Z</time></trkpt>
<trkpt lat="49.978848" lon="11.061389"><ele>328</ele><time>2010-08-01T13:21:28Z</time></trkpt>
<trkpt lat="49.978918" lon="11.062503"><ele>328</ele><time>2010-08-01T13:21:30Z</time></trkpt>
<trkpt lat="49.979047" lon="11.063590"><ele>328</ele><time>2010-08-01T13:21:32Z</time></trkpt>
<trkpt lat="49.979138" lon="11.064611"><ele>331</ele><time>2010-08-01T13:21:34Z</time></trkpt>
<trkpt lat="49.979315" lon="11.066386"><ele>331</ele><time>2010-08-01T13:21:38Z</time></trkpt>
<trkpt lat="49.979383" lon="11.066761"><ele>332</ele><time>2010-08-01T13:21:39Z</time></trkpt>
<trkpt lat="49.979655" lon="11.067949"><ele>332</ele><time>2010-08-01T13:21:42Z</time></trkpt>
<trkpt lat="49.980058" lon="11.069194"><ele>332</ele><time>2010-08-01T13:21:45Z</time></trkpt>
<trkpt lat="49.980656" lon="11.071289"><ele>338</ele><time>2010-08-01T13:21:50Z</time></trkpt>
<trkpt lat="49.980745" lon="11.072295"><ele>340</ele><time>2010-08-01T13:21:52Z</time></trkpt>
<trkpt lat="49.980734" lon="11.072767"><ele>341</ele><time>2010-08-01T13:21:53Z</time></trkpt>
<trkpt lat="49.980917" lon="11.075220"><ele>342</ele><time>2010-08-01T13:21:58Z</time></trkpt>
<trkpt lat="49.980962" lon="11.076275"><ele>343</ele><time>2010-08-01T13:22:00Z</time></trkpt>
<trkpt lat="49.980897" lon="11.077254"><ele>346</ele><time>2010-08-01T13:22:02Z</time></trkpt>
<trkpt lat="49.980839" lon="11.080161"><ele>348</ele><time>2010-08-01T13:22:08Z</time></trkpt>
<trkpt lat="49.980828" lon="11.080596"><ele>350</ele><time>2010-08-01T13:22:09Z</time></trkpt>
<trkpt lat="49.980757" lon="11.082182"><ele>350</ele><time>2010-08-01T13:22:13Z</time></trkpt>
<trkpt lat="49.980672" lon="11.082872"><ele>351</ele><time>2010-08-01T13:22:15Z</time></trkpt>
<trkpt lat="49.980555" lon="11.084107"><ele>353</ele><time>2010-08-01T13:22:19Z</time></trkpt>
<trkpt lat="49.980465" lon="11.084568"><ele>355</ele><time>2010-08-01T13:22:21Z</time></trkpt>
<trkpt lat="49.980329" lon="11.085255"><ele>356</ele><time>2010-08-01T13:22:24Z</time></trkpt>
<trkpt lat="49.980167" lon="11.085881"><ele>358</ele><time>2010-08-01T13:22:27Z</time></trkpt>
<trkpt lat="49.979847" lon="11.086867"><ele>362</ele><time>2010-08-01T13:22:32Z</time></trkpt>
<trkpt lat="49.979688" lon="11.087214"><ele>363</ele><time>2010-08-01T13:22:34Z</time></trkpt>
<trkpt lat="49.979398" lon="11.087882"><ele>364</ele><time>2010-08-01T13:22:38Z</time></trkpt>
<trkpt lat="49.979340" lon="11.088071"><ele>365</ele><time>2010-08-01T13:22:39Z</time></trkpt>
<trkpt lat="49.979247" lon="11.088457"><ele>366</ele><time>2010-08-01T13:22:41Z</time></trkpt>
<trkpt lat="49.979197" lon="11.088852"><ele>367</ele><time>2010-08-01T13:22:43Z</time></trkpt>
<trkpt lat="49.979200" lon="11.089049"><ele>368</ele><time>2010-08-01T13:22:44Z</time></trkpt>
<trkpt lat="49.979219" lon="11.089432"><ele>368</ele><time>2010-08-01T13:22:46Z</time></trkpt>
<trkpt lat="49.979303" lon="11.090807"><ele>369</ele><time>2010-08-01T13:22:52Z</time></trkpt>
<trkpt lat="49.979302" lon="11.091442"><ele>371</ele><time>2010-08-01T13:22:55Z</time></trkpt>
<trkpt lat="49.979238" lon="11.092247"><ele>371</ele><time>2010-08-01T13:22:59Z</time></trkpt>
<trkpt lat="49.979193" lon="11.092443"><ele>372</ele><time>2010-08-01T13:23:00Z</time></trkpt>
<trkpt lat="49.979051" lon="11.093010"><ele>375</ele><time>2010-08-01T13:23:03Z</time></trkpt>
<trkpt lat="49.978906" lon="11.093366"><ele>377</ele><time>2010-08-01T13:23:05Z</time></trkpt>
<trkpt lat="49.978833" lon="11.093528"><ele>377</ele><time>2010-08-01T13:23:06Z</time></trkpt>
<trkpt lat="49.978731" lon="11.093691"><ele>378</ele><time>2010-08-01T13:23:07Z</time></trkpt>
<trkpt lat="49.978453" lon="11.093948"><ele>377</ele><time>2010-08-01T13:23:09Z</time></trkpt>
<trkpt lat="49.978317" lon="11.094031"><ele>376</ele><time>2010-08-01T13:23:10Z</time></trkpt>
<trkpt lat="49.978143" lon="11.094031"><ele>377</ele><time>2010-08-01T13:23:11Z</time></trkpt>
<trkpt lat="49.977969" lon="11.093951"><ele>378</ele><time>2010-08-01T13:23:12Z</time></trkpt>
<trkpt lat="49.977791" lon="11.093787"><ele>378</ele><time>2010-08-01T13:23:13Z</time></trkpt>
<trkpt lat="49.977502" lon="11.093334"><ele>379</ele><time>2010-08-01T13:23:15Z</time></trkpt>
<trkpt lat="49.977430" lon="11.093015"><ele>380</ele><time>2010-08-01T13:23:16Z</time></trkpt>
<trkpt lat="49.977220" lon="11.092527"><ele>383</ele><time>2010-08-01T13:23:18Z</time></trkpt>
<trkpt lat="49.977093" lon="11.092377"><ele>384</ele><time>2010-08-01T13:23:19Z</time></trkpt>
<trkpt lat="49.976752" lon="11.092274"><ele>384</ele><time>2010-08-01T13:23:21Z</time></trkpt>
<trkpt lat="49.976583" lon="11.092337"><ele>384</ele><time>2010-08-01T13:23:22Z</time></trkpt>
<trkpt lat="49.976441" lon="11.092407"><ele>384</ele><time>2010-08-01T13:23:23Z</time></trkpt>
<trkpt lat="49.976384" lon="11.094336"><ele>387</ele><time>2010-08-01T13:23:29Z</time></trkpt>
<trkpt lat="49.976537" lon="11.094608"><ele>392</ele><time>2010-08-01T13:23:30Z</time></trkpt>
<trkpt lat="49.976827" lon="11.096183"><ele>396</ele><time>2010-08-01T13:23:36Z</time></trkpt>
<trkpt lat="49.977013" lon="11.097238"><ele>399</ele><time>2010-08-01T13:23:40Z</time></trkpt>
<trkpt lat="49.977234" lon="11.098296"><ele>401</ele><time>2010-08-01T13:23:45Z</time></trkpt>
<trkpt lat="49.977281" lon="11.098481"><ele>402</ele><time>2010-08-01T13:23:46Z</time></trkpt>
<trkpt lat="49.977509" lon="11.098906"><ele>403</ele><time>2010-08-01T13:23:49Z</time></trkpt>
<trkpt lat="49.977619" lon="11.098984"><ele>404</ele><time>2010-08-01T13:23:50Z</time></trkpt>
<trkpt lat="49.978233" lon="11.097686"><ele>403</ele><time>2010-08-01T13:23:56Z</time></trkpt>
<trkpt lat="49.978215" lon="11.097293"><ele>406</ele><time>2010-08-01T13:23:57Z</time></trkpt>
<trkpt lat="49.978447" lon="11.096790"><ele>411</ele><time>2010-08-01T13:24:00Z</time></trkpt>
<trkpt lat="49.978767" lon="11.097574"><ele>417</ele><time>2010-08-01T13:24:06Z</time></trkpt>
<trkpt lat="49.978605" lon="11.098873"><ele>420</ele><time>2010-08-01T13:24:09Z</time></trkpt>
<trkpt lat="49.978469" lon="11.099599"><ele>423</ele><time>2010-08-01T13:24:11Z</time></trkpt>
<trkpt lat="49.978348" lon="11.099926"><ele>424</ele><time>2010-08-01T13:24:12Z</time></trkpt>
<trkpt lat="49.978097" lon="11.100127"><ele>424</ele><time>2010-08-01T13:24:13Z</time></trkpt>
<trkpt lat="49.977906" lon="11.100389"><ele>425</ele><time>2010-08-01T13:24:14Z</time></trkpt>
<trkpt lat="49.977140" lon="11.101736"><ele>428</ele><time>2010-08-01T13:24:19Z</time></trkpt>
<trkpt lat="49.976454" lon="11.103005"><ele>432</ele><time>2010-08-01T13:24:24Z</time></trkpt>
<trkpt lat="49.975871" lon="11.104315"><ele>435</ele><time>2010-08-01T13:24:29Z</time></trkpt>
<trkpt lat="49.975726" lon="11.104828"><ele>441</ele><time>2010-08-01T13:24:31Z</time></trkpt>
<trkpt lat="49.975710" lon="11.105381"><ele>441</ele><time>2010-08-01T13:24:33Z</time></trkpt>
<trkpt lat="49.975731" lon="11.105636"><ele>443</ele><time>2010-08-01T13:24:34Z</time></trkpt>
<trkpt lat="49.975763" lon="11.105912"><ele>444</ele><time>2010-08-01T13:24:35Z</time></trkpt>
<trkpt lat="49.976041" lon="11.106395"><ele>449</ele><time>2010-08-01T13:24:37Z</time></trkpt>
<trkpt lat="49.976282" lon="11.107246"><ele>452</ele><time>2010-08-01T13:24:40Z</time></trkpt>
<trkpt lat="49.976264" lon="11.107951"><ele>454</ele><time>2010-08-01T13:24:42Z</time></trkpt>
<trkpt lat="49.976155" lon="11.108753"><ele>455</ele><time>2010-08-01T13:24:44Z</time></trkpt>
<trkpt lat="49.976004" lon="11.109713"><ele>456</ele><time>2010-08-01T13:24:47Z</time></trkpt>
<trkpt lat="49.975831" lon="11.110438"><ele>460</ele><time>2010-08-01T13:24:50Z</time></trkpt>
<trkpt lat="49.975731" lon="11.110586"><ele>462</ele><time>2010-08-01T13:24:51Z</time></trkpt>
<trkpt lat="49.975559" lon="11.110862"><ele>463</ele><time>2010-08-01T13:24:53Z</time></trkpt>
<trkpt lat="49.975292" lon="11.110709"><ele>463</ele><time>2010-08-01T13:24:54Z</time></trkpt>
<trkpt lat="49.974920" lon="11.110931"><ele>466</ele><time>2010-08-01T13:24:57Z</time></trkpt>
<trkpt lat="49.974855" lon="11.111075"><ele>469</ele><time>2010-08-01T13:24:58Z</time></trkpt>
<trkpt lat="49.974835" lon="11.111228"><ele>469</ele><time>2010-08-01T13:24:59Z</time></trkpt>
<trkpt lat="49.974919" lon="11.111440"><ele>470</ele><time>2010-08-01T13:25:00Z</time></trkpt>
<trkpt lat="49.974991" lon="11.111612"><ele>472</ele><time>2010-08-01T13:25:01Z</time></trkpt>
<trkpt lat="49.975125" lon="11.112008"><ele>475</ele><time>2010-08-01T13:25:03Z</time></trkpt>
<trkpt lat="49.975158" lon="11.112310"><ele>475</ele><time>2010-08-01T13:25:04Z</time></trkpt>
<trkpt lat="49.975156" lon="11.112886"><ele>477</ele><time>2010-08-01T13:25:06Z</time></trkpt>
<trkpt lat="49.975057" lon="11.113268"><ele>481</ele><time>2010-08-01T13:25:07Z</time></trkpt>
<trkpt lat="49.974914" lon="11.113966"><ele>481</ele><time>2010-08-01T13:25:09Z</time></trkpt>
<trkpt lat="49.974609" lon="11.115489"><ele>483</ele><time>2010-08-01T13:25:13Z</time></trkpt>
<trkpt lat="49.974269" lon="11.117642"><ele>486</ele><time>2010-08-01T13:25:19Z</time></trkpt>
<trkpt lat="49.974191" lon="11.117939"><ele>489</ele><time>2010-08-01T13:25:20Z</time></trkpt>
<trkpt lat="49.973972" lon="11.119151"><ele>489</ele><time>2010-08-01T13:25:24Z</time></trkpt>
<trkpt lat="49.973930" lon="11.120511"><ele>490</ele><time>2010-08-01T13:25:28Z</time></trkpt>
<trkpt lat="49.973988" lon="11.120896"><ele>489</ele><time>2010-08-01T13:25:29Z</time></trkpt>
<trkpt lat="49.974208" lon="11.121708"><ele>488</ele><time>2010-08-01T13:25:31Z</time></trkpt>
<trkpt lat="49.974364" lon="11.122132"><ele>488</ele><time>2010-08-01T13:25:32Z</time></trkpt>
<trkpt lat="49.974783" lon="11.123598"><ele>486</ele><time>2010-08-01T13:25:36Z</time></trkpt>
<trkpt lat="49.974983" lon="11.124225"><ele>486</ele><time>2010-08-01T13:25:38Z</time></trkpt>
<trkpt lat="49.975451" lon="11.125452"><ele>485</ele><time>2010-08-01T13:25:42Z</time></trkpt>
<trkpt lat="49.976020" lon="11.126819"><ele>483</ele><time>2010-08-01T13:25:47Z</time></trkpt>
<trkpt lat="49.976272" lon="11.127325"><ele>482</ele><time>2010-08-01T13:25:49Z</time></trkpt>
<trkpt lat="49.976763" lon="11.127974"><ele>481</ele><time>2010-08-01T13:25:52Z</time></trkpt>
<trkpt lat="49.976970" lon="11.128088"><ele>481</ele><time>2010-08-01T13:25:53Z</time></trkpt>
<trkpt lat="49.977224" lon="11.128105"><ele>481</ele><time>2010-08-01T13:25:54Z</time></trkpt>
<trkpt lat="49.977556" lon="11.127905"><ele>482</ele><time>2010-08-01T13:25:55Z</time></trkpt>
<trkpt lat="49.977840" lon="11.127713"><ele>482</ele><time>2010-08-01T13:25:56Z</time></trkpt>
<trkpt lat="49.979012" lon="11.127520"><ele>480</ele><time>2010-08-01T13:26:01Z</time></trkpt>
<trkpt lat="49.979509" lon="11.127733"><ele>481</ele><time>2010-08-01T13:26:03Z</time></trkpt>
<trkpt lat="49.979730" lon="11.127937"><ele>480</ele><time>2010-08-01T13:26:04Z</time></trkpt>
<trkpt lat="49.980193" lon="11.128450"><ele>480</ele><time>2010-08-01T13:26:06Z</time></trkpt>
<trkpt lat="49.981028" lon="11.128992"><ele>479</ele><time>2010-08-01T13:26:10Z</time></trkpt>
<trkpt lat="49.981481" lon="11.129219"><ele>477</ele><time>2010-08-01T13:26:12Z</time></trkpt>
<trkpt lat="49.981924" lon="11.129553"><ele>473</ele><time>2010-08-01T13:26:14Z</time></trkpt>
<trkpt lat="49.982709" lon="11.130323"><ele>470</ele><time>2010-08-01T13:26:18Z</time></trkpt>
<trkpt lat="49.983246" lon="11.130993"><ele>469</ele><time>2010-08-01T13:26:21Z</time></trkpt>
<trkpt lat="49.983563" lon="11.131526"><ele>468</ele><time>2010-08-01T13:26:23Z</time></trkpt>
<trkpt lat="49.983792" lon="11.132274"><ele>469</ele><time>2010-08-01T13:26:25Z</time></trkpt>
<trkpt lat="49.983837" lon="11.132663"><ele>470</ele><time>2010-08-01T13:26:26Z</time></trkpt>
<trkpt lat="49.983901" lon="11.133482"><ele>469</ele><time>2010-08-01T13:26:28Z</time></trkpt>
<trkpt lat="49.983992" lon="11.135387"><ele>468</ele><time>2010-08-01T13:26:33Z</time></trkpt>
<trkpt lat="49.983825" lon="11.136033"><ele>464</ele><time>2010-08-01T13:26:35Z</time></trkpt>
<trkpt lat="49.983671" lon="11.136758"><ele>463</ele><time>2010-08-01T13:26:37Z</time></trkpt>
<trkpt lat="49.983480" lon="11.137477"><ele>462</ele><time>2010-08-01T13:26:39Z</time></trkpt>
<trkpt lat="49.982991" lon="11.139157"><ele>462</ele><time>2010-08-01T13:26:44Z</time></trkpt>
<trkpt lat="49.982871" lon="11.139877"><ele>460</ele><time>2010-08-01T13:26:46Z</time></trkpt>
<trkpt lat="49.982696" lon="11.141588"><ele>459</ele><time>2010-08-01T13:26:51Z</time></trkpt>
<trkpt lat="49.982621" lon="11.142176"><ele>458</ele><time>2010-08-01T13:26:53Z</time></trkpt>
<trkpt lat="49.982442" lon="11.142963"><ele>457</ele><time>2010-08-01T13:26:56Z</time></trkpt>
<trkpt lat="49.982155" lon="11.143926"><ele>456</ele><time>2010-08-01T13:27:01Z</time></trkpt>
<trkpt lat="49.982118" lon="11.144024"><ele>456</ele><time>2010-08-01T13:27:03Z</time></trkpt>
<trkpt lat="49.982145" lon="11.144065"><ele>455</ele><time>2010-08-01T13:27:04Z</time></trkpt>
<trkpt lat="49.982171" lon="11.144106"><ele>456</ele><time>2010-08-01T13:27:05Z</time></trkpt>
<trkpt lat="49.982260" lon="11.144088"><ele>456</ele><time>2010-08-01T13:27:06Z</time></trkpt>
<trkpt lat="49.982417" lon="11.143997"><ele>456</ele><time>2010-08-01T13:27:07Z</time></trkpt>
<trkpt lat="49.982724" lon="11.143592"><ele>456</ele><time>2010-08-01T13:27:09Z</time></trkpt>
<trkpt lat="49.983025" lon="11.143142"><ele>455</ele><time>2010-08-01T13:27:11Z</time></trkpt>
<trkpt lat="49.983343" lon="11.142757"><ele>456</ele><time>2010-08-01T13:27:13Z</time></trkpt>
<trkpt lat="49.983875" lon="11.142287"><ele>458</ele><time>2010-08-01T13:27:16Z</time></trkpt>
<trkpt lat="49.984083" lon="11.142183"><ele>460</ele><time>2010-08-01T13:27:17Z</time></trkpt>
<trkpt lat="49.984525" lon="11.142002"><ele>462</ele><time>2010-08-01T13:27:19Z</time></trkpt>
<trkpt lat="49.984965" lon="11.141882"><ele>463</ele><time>2010-08-01T13:27:21Z</time></trkpt>
<trkpt lat="49.986038" lon="11.141638"><ele>465</ele><time>2010-08-01T13:27:26Z</time></trkpt>
<trkpt lat="49.986885" lon="11.140895"><ele>465</ele><time>2010-08-01T13:27:30Z</time></trkpt>
<trkpt lat="49.987232" lon="11.140340"><ele>466</ele><time>2010-08-01T13:27:32Z</time></trkpt>
<trkpt lat="49.988173" lon="11.138885"><ele>467</ele><time>2010-08-01T13:27:37Z</time></trkpt>
<trkpt lat="49.988922" lon="11.137650"><ele>470</ele><time>2010-08-01T13:27:41Z</time></trkpt>
<trkpt lat="49.989819" lon="11.136144"><ele>472</ele><time>2010-08-01T13:27:46Z</time></trkpt>
<trkpt lat="49.990050" lon="11.135929"><ele>472</ele><time>2010-08-01T13:27:47Z</time></trkpt>
<trkpt lat="49.990295" lon="11.135774"><ele>472</ele><time>2010-08-01T13:27:48Z</time></trkpt>
<trkpt lat="49.991416" lon="11.134662"><ele>473</ele><time>2010-08-01T13:27:53Z</time></trkpt>
<trkpt lat="49.991576" lon="11.134344"><ele>471</ele><time>2010-08-01T13:27:54Z</time></trkpt>
<trkpt lat="49.992310" lon="11.133339"><ele>472</ele><time>2010-08-01T13:27:58Z</time></trkpt>
<trkpt lat="49.992488" lon="11.133177"><ele>474</ele><time>2010-08-01T13:27:59Z</time></trkpt>
<trkpt lat="49.992684" lon="11.133077"><ele>475</ele><time>2010-08-01T13:28:00Z</time></trkpt>
<trkpt lat="49.992824" lon="11.133025"><ele>476</ele><time>2010-08-01T13:28:01Z</time></trkpt>
<trkpt lat="49.993175" lon="11.132772"><ele>476</ele><time>2010-08-01T13:28:04Z</time></trkpt>
<trkpt lat="49.993265" lon="11.132667"><ele>477</ele><time>2010-08-01T13:28:05Z</time></trkpt>
<trkpt lat="49.993588" lon="11.132349"><ele>478</ele><time>2010-08-01T13:28:09Z</time></trkpt>
<trkpt lat="49.993694" lon="11.132305"><ele>478</ele><time>2010-08-01T13:28:11Z</time></trkpt>
<trkpt lat="49.993698" lon="11.132322"><ele>478</ele><time>2010-08-01T13:28:12Z</time></trkpt>
<trkpt lat="49.993728" lon="11.132355"><ele>478</ele><time>2010-08-01T13:28:13Z</time></trkpt>
<trkpt lat="49.993740" lon="11.132413"><ele>478</ele><time>2010-08-01T13:28:14Z</time></trkpt>
<trkpt lat="49.993777" lon="11.132517"><ele>478</ele><time>2010-08-01T13:28:15Z</time></trkpt>
<trkpt lat="49.993856" lon="11.132831"><ele>478</ele><time>2010-08-01T13:28:17Z</time></trkpt>
<trkpt lat="49.993955" lon="11.133268"><ele>478</ele><time>2010-08-01T13:28:19Z</time></trkpt>
<trkpt lat="49.994034" lon="11.133521"><ele>477</ele><time>2010-08-01T13:28:20Z</time></trkpt>
<trkpt lat="49.994440" lon="11.135132"><ele>477</ele><time>2010-08-01T13:28:25Z</time></trkpt>
<trkpt lat="49.994517" lon="11.135508"><ele>476</ele><time>2010-08-01T13:28:26Z</time></trkpt>
<trkpt lat="49.995056" lon="11.137804"><ele>474</ele><time>2010-08-01T13:28:32Z</time></trkpt>
<trkpt lat="49.995375" lon="11.138456"><ele>472</ele><time>2010-08-01T13:28:34Z</time></trkpt>
<trkpt lat="49.995787" lon="11.139051"><ele>472</ele><time>2010-08-01T13:28:36Z</time></trkpt>
<trkpt lat="49.996824" lon="11.140475"><ele>475</ele><time>2010-08-01T13:28:41Z</time></trkpt>
<trkpt lat="49.997961" lon="11.141914"><ele>477</ele><time>2010-08-01T13:28:46Z</time></trkpt>
<trkpt lat="49.998559" lon="11.142903"><ele>480</ele><time>2010-08-01T13:28:49Z</time></trkpt>
<trkpt lat="49.998880" lon="11.143646"><ele>483</ele><time>2010-08-01T13:28:51Z</time></trkpt>
<trkpt lat="49.999157" lon="11.144456"><ele>485</ele><time>2010-08-01T13:28:53Z</time></trkpt>
<trkpt lat="49.999412" lon="11.145756"><ele>486</ele><time>2010-08-01T13:28:56Z</time></trkpt>
<trkpt lat="49.999509" lon="11.146642"><ele>486</ele><time>2010-08-01T13:28:58Z</time></trkpt>
<trkpt lat="49.999736" lon="11.149351"><ele>487</ele><time>2010-08-01T13:29:04Z</time></trkpt>
<trkpt lat="50.000179" lon="11.151781"><ele>487</ele><time>2010-08-01T13:29:09Z</time></trkpt>
<trkpt lat="50.000512" lon="11.153720"><ele>484</ele><time>2010-08-01T13:29:13Z</time></trkpt>
<trkpt lat="50.000833" lon="11.156572"><ele>480</ele><time>2010-08-01T13:29:19Z</time></trkpt>
<trkpt lat="50.001091" lon="11.159425"><ele>477</ele><time>2010-08-01T13:29:25Z</time></trkpt>
<trkpt lat="50.001241" lon="11.160361"><ele>475</ele><time>2010-08-01T13:29:27Z</time></trkpt>
<trkpt lat="50.001600" lon="11.161702"><ele>475</ele><time>2010-08-01T13:29:30Z</time></trkpt>
<trkpt lat="50.001954" lon="11.162534"><ele>475</ele><time>2010-08-01T13:29:32Z</time></trkpt>
<trkpt lat="50.002407" lon="11.163227"><ele>475</ele><time>2010-08-01T13:29:34Z</time></trkpt>
<trkpt lat="50.002865" lon="11.163816"><ele>475</ele><time>2010-08-01T13:29:36Z</time></trkpt>
<trkpt lat="50.003763" lon="11.164952"><ele>475</ele><time>2010-08-01T13:29:40Z</time></trkpt>
<trkpt lat="50.004338" lon="11.165940"><ele>474</ele><time>2010-08-01T13:29:43Z</time></trkpt>
<trkpt lat="50.005043" lon="11.167383"><ele>473</ele><time>2010-08-01T13:29:47Z</time></trkpt>
<trkpt lat="50.005760" lon="11.169285"><ele>474</ele><time>2010-08-01T13:29:52Z</time></trkpt>
<trkpt lat="50.006342" lon="11.171238"><ele>476</ele><time>2010-08-01T13:29:57Z</time></trkpt>
<trkpt lat="50.006582" lon="11.172478"><ele>478</ele><time>2010-08-01T13:30:00Z</time></trkpt>
<trkpt lat="50.006782" lon="11.174583"><ele>477</ele><time>2010-08-01T13:30:05Z</time></trkpt>
<trkpt lat="50.006784" lon="11.175360"><ele>476</ele><time>2010-08-01T13:30:07Z</time></trkpt>
<trkpt lat="50.006737" lon="11.176766"><ele>475</ele><time>2010-08-01T13:30:11Z</time></trkpt>
<trkpt lat="50.006577" lon="11.178117"><ele>473</ele><time>2010-08-01T13:30:15Z</time></trkpt>
<trkpt lat="50.006234" lon="11.179852"><ele>471</ele><time>2010-08-01T13:30:20Z</time></trkpt>
<trkpt lat="50.005859" lon="11.182063"><ele>469</ele><time>2010-08-01T13:30:26Z</time></trkpt>
<trkpt lat="50.005776" lon="11.183318"><ele>469</ele><time>2010-08-01T13:30:29Z</time></trkpt>
<trkpt lat="50.005963" lon="11.184625"><ele>471</ele><time>2010-08-01T13:30:32Z</time></trkpt>
<trkpt lat="50.006074" lon="11.185048"><ele>474</ele><time>2010-08-01T13:30:33Z</time></trkpt>
<trkpt lat="50.006638" lon="11.187356"><ele>475</ele><time>2010-08-01T13:30:39Z</time></trkpt>
<trkpt lat="50.007185" lon="11.189240"><ele>477</ele><time>2010-08-01T13:30:44Z</time></trkpt>
<trkpt lat="50.007414" lon="11.190326"><ele>477</ele><time>2010-08-01T13:30:47Z</time></trkpt>
<trkpt lat="50.007427" lon="11.191046"><ele>476</ele><time>2010-08-01T13:30:49Z</time></trkpt>
<trkpt lat="50.007553" lon="11.193359"><ele>472</ele><time>2010-08-01T13:30:55Z</time></trkpt>
<trkpt lat="50.007761" lon="11.194538"><ele>471</ele><time>2010-08-01T13:30:58Z</time></trkpt>
<trkpt lat="50.007985" lon="11.195287"><ele>470</ele><time>2010-08-01T13:31:00Z</time></trkpt>
<trkpt lat="50.008363" lon="11.196617"><ele>470</ele><time>2010-08-01T13:31:04Z</time></trkpt>
<trkpt lat="50.008574" lon="11.197327"><ele>469</ele><time>2010-08-01T13:31:07Z</time></trkpt>
<trkpt lat="50.008686" lon="11.197725"><ele>467</ele><time>2010-08-01T13:31:09Z</time></trkpt>
<trkpt lat="50.009001" lon="11.198784"><ele>466</ele><time>2010-08-01T13:31:14Z</time></trkpt>
<trkpt lat="50.009423" lon="11.200294"><ele>465</ele><time>2010-08-01T13:31:20Z</time></trkpt>
<trkpt lat="50.009503" lon="11.200579"><ele>463</ele><time>2010-08-01T13:31:21Z</time></trkpt>
<trkpt lat="50.010107" lon="11.202485"><ele>464</ele><time>2010-08-01T13:31:27Z</time></trkpt>
<trkpt lat="50.010355" lon="11.203598"><ele>464</ele><time>2010-08-01T13:31:30Z</time></trkpt>
<trkpt lat="50.010499" lon="11.204414"><ele>464</ele><time>2010-08-01T13:31:32Z</time></trkpt>
<trkpt lat="50.010636" lon="11.205712"><ele>463</ele><time>2010-08-01T13:31:35Z</time></trkpt>
<trkpt lat="50.010676" lon="11.207057"><ele>463</ele><time>2010-08-01T13:31:38Z</time></trkpt>
<trkpt lat="50.010613" lon="11.208806"><ele>460</ele><time>2010-08-01T13:31:42Z</time></trkpt>
<trkpt lat="50.010602" lon="11.211415"><ele>457</ele><time>2010-08-01T13:31:48Z</time></trkpt>
<trkpt lat="50.010582" lon="11.213122"><ele>456</ele><time>2010-08-01T13:31:52Z</time></trkpt>
<trkpt lat="50.010365" lon="11.214417"><ele>455</ele><time>2010-08-01T13:31:55Z</time></trkpt>
<trkpt lat="50.009843" lon="11.217040"><ele>450</ele><time>2010-08-01T13:32:01Z</time></trkpt>
<trkpt lat="50.009620" lon="11.219149"><ele>446</ele><time>2010-08-01T13:32:06Z</time></trkpt>
<trkpt lat="50.009670" lon="11.220052"><ele>445</ele><time>2010-08-01T13:32:08Z</time></trkpt>
<trkpt lat="50.009741" lon="11.220519"><ele>445</ele><time>2010-08-01T13:32:09Z</time></trkpt>
<trkpt lat="50.009902" lon="11.221446"><ele>443</ele><time>2010-08-01T13:32:11Z</time></trkpt>
<trkpt lat="50.010086" lon="11.223231"><ele>443</ele><time>2010-08-01T13:32:15Z</time></trkpt>
<trkpt lat="50.010006" lon="11.224551"><ele>443</ele><time>2010-08-01T13:32:18Z</time></trkpt>
<trkpt lat="50.009873" lon="11.226686"><ele>443</ele><time>2010-08-01T13:32:23Z</time></trkpt>
<trkpt lat="50.009987" lon="11.227590"><ele>444</ele><time>2010-08-01T13:32:25Z</time></trkpt>
<trkpt lat="50.010071" lon="11.229937"><ele>446</ele><time>2010-08-01T13:32:30Z</time></trkpt>
<trkpt lat="50.010184" lon="11.232535"><ele>450</ele><time>2010-08-01T13:32:36Z</time></trkpt>
<trkpt lat="50.010359" lon="11.233356"><ele>452</ele><time>2010-08-01T13:32:38Z</time></trkpt>
<trkpt lat="50.010545" lon="11.233800"><ele>453</ele><time>2010-08-01T13:32:39Z</time></trkpt>
<trkpt lat="50.010740" lon="11.234212"><ele>453</ele><time>2010-08-01T13:32:40Z</time></trkpt>
<trkpt lat="50.011168" lon="11.234979"><ele>456</ele><time>2010-08-01T13:32:42Z</time></trkpt>
<trkpt lat="50.011704" lon="11.236182"><ele>458</ele><time>2010-08-01T13:32:45Z</time></trkpt>
<trkpt lat="50.012516" lon="11.238544"><ele>461</ele><time>2010-08-01T13:32:51Z</time></trkpt>
<trkpt lat="50.012888" lon="11.239200"><ele>462</ele><time>2010-08-01T13:32:53Z</time></trkpt>
<trkpt lat="50.013157" lon="11.239513"><ele>463</ele><time>2010-08-01T13:32:54Z</time></trkpt>
<trkpt lat="50.014262" lon="11.241184"><ele>467</ele><time>2010-08-01T13:32:59Z</time></trkpt>
<trkpt lat="50.014787" lon="11.242275"><ele>471</ele><time>2010-08-01T13:33:02Z</time></trkpt>
<trkpt lat="50.015373" lon="11.243667"><ele>473</ele><time>2010-08-01T13:33:06Z</time></trkpt>
<trkpt lat="50.015441" lon="11.243975"><ele>476</ele><time>2010-08-01T13:33:07Z</time></trkpt>
<trkpt lat="50.015575" lon="11.244531"><ele>476</ele><time>2010-08-01T13:33:09Z</time></trkpt>
<trkpt lat="50.015698" lon="11.245070"><ele>475</ele><time>2010-08-01T13:33:11Z</time></trkpt>
<trkpt lat="50.016007" lon="11.246474"><ele>476</ele><time>2010-08-01T13:33:16Z</time></trkpt>
<trkpt lat="50.016138" lon="11.247171"><ele>477</ele><time>2010-08-01T13:33:18Z</time></trkpt>
<trkpt lat="50.016260" lon="11.248012"><ele>476</ele><time>2010-08-01T13:33:20Z</time></trkpt>
<trkpt lat="50.016545" lon="11.249300"><ele>476</ele><time>2010-08-01T13:33:23Z</time></trkpt>
<trkpt lat="50.016849" lon="11.250081"><ele>475</ele><time>2010-08-01T13:33:25Z</time></trkpt>
<trkpt lat="50.017067" lon="11.250437"><ele>476</ele><time>2010-08-01T13:33:26Z</time></trkpt>
<trkpt lat="50.017331" lon="11.250776"><ele>477</ele><time>2010-08-01T13:33:27Z</time></trkpt>
<trkpt lat="50.018408" lon="11.252469"><ele>477</ele><time>2010-08-01T13:33:32Z</time></trkpt>
<trkpt lat="50.019393" lon="11.254183"><ele>476</ele><time>2010-08-01T13:33:37Z</time></trkpt>
<trkpt lat="50.019694" lon="11.254987"><ele>477</ele><time>2010-08-01T13:33:39Z</time></trkpt>
<trkpt lat="50.019778" lon="11.255438"><ele>477</ele><time>2010-08-01T13:33:40Z</time></trkpt>
<trkpt lat="50.019842" lon="11.256304"><ele>478</ele><time>2010-08-01T13:33:42Z</time></trkpt>
<trkpt lat="50.020260" lon="11.257927"><ele>477</ele><time>2010-08-01T13:33:46Z</time></trkpt>
<trkpt lat="50.020794" lon="11.259544"><ele>476</ele><time>2010-08-01T13:33:50Z</time></trkpt>
<trkpt lat="50.020950" lon="11.260427"><ele>475</ele><time>2010-08-01T13:33:52Z</time></trkpt>
<trkpt lat="50.020947" lon="11.260875"><ele>475</ele><time>2010-08-01T13:33:53Z</time></trkpt>
<trkpt lat="50.020948" lon="11.261744"><ele>476</ele><time>2010-08-01T13:33:55Z</time></trkpt>
<trkpt lat="50.021125" lon="11.263336"><ele>477</ele><time>2010-08-01T13:33:59Z</time></trkpt>
<trkpt lat="50.021381" lon="11.264004"><ele>479</ele><time>2010-08-01T13:34:01Z</time></trkpt>
<trkpt lat="50.021577" lon="11.264293"><ele>480</ele><time>2010-08-01T13:34:02Z</time></trkpt>
<trkpt lat="50.021901" lon="11.264480"><ele>481</ele><time>2010-08-01T13:34:03Z</time></trkpt>
<trkpt lat="50.022437" lon="11.264934"><ele>482</ele><time>2010-08-01T13:34:05Z</time></trkpt>
<trkpt lat="50.022783" lon="11.265168"><ele>482</ele><time>2010-08-01T13:34:06Z</time></trkpt>
<trkpt lat="50.023603" lon="11.266467"><ele>484</ele><time>2010-08-01T13:34:10Z</time></trkpt>
<trkpt lat="50.023910" lon="11.267202"><ele>484</ele><time>2010-08-01T13:34:12Z</time></trkpt>
<trkpt lat="50.024501" lon="11.268658"><ele>483</ele><time>2010-08-01T13:34:16Z</time></trkpt>
<trkpt lat="50.025346" lon="11.270931"><ele>483</ele><time>2010-08-01T13:34:22Z</time></trkpt>
<trkpt lat="50.025699" lon="11.271587"><ele>483</ele><time>2010-08-01T13:34:24Z</time></trkpt>
<trkpt lat="50.026699" lon="11.273296"><ele>482</ele><time>2010-08-01T13:34:29Z</time></trkpt>
<trkpt lat="50.027260" lon="11.274909"><ele>481</ele><time>2010-08-01T13:34:33Z</time></trkpt>
<trkpt lat="50.027297" lon="11.275355"><ele>481</ele><time>2010-08-01T13:34:34Z</time></trkpt>
<trkpt lat="50.027320" lon="11.275797"><ele>480</ele><time>2010-08-01T13:34:35Z</time></trkpt>
<trkpt lat="50.027330" lon="11.276269"><ele>481</ele><time>2010-08-01T13:34:36Z</time></trkpt>
<trkpt lat="50.027303" lon="11.276718"><ele>481</ele><time>2010-08-01T13:34:37Z</time></trkpt>
<trkpt lat="50.027263" lon="11.278933"><ele>481</ele><time>2010-08-01T13:34:42Z</time></trkpt>
<trkpt lat="50.027339" lon="11.281681"><ele>482</ele><time>2010-08-01T13:34:48Z</time></trkpt>
<trkpt lat="50.027471" lon="11.284479"><ele>485</ele><time>2010-08-01T13:34:54Z</time></trkpt>
<trkpt lat="50.027545" lon="11.286306"><ele>487</ele><time>2010-08-01T13:34:58Z</time></trkpt>
<trkpt lat="50.027640" lon="11.288589"><ele>490</ele><time>2010-08-01T13:35:03Z</time></trkpt>
<trkpt lat="50.027705" lon="11.291735"><ele>489</ele><time>2010-08-01T13:35:10Z</time></trkpt>
<trkpt lat="50.027790" lon="11.293953"><ele>487</ele><time>2010-08-01T13:35:15Z</time></trkpt>
<trkpt lat="50.027796" lon="11.296181"><ele>481</ele><time>2010-08-01T13:35:20Z</time></trkpt>
<trkpt lat="50.027829" lon="11.297829"><ele>478</ele><time>2010-08-01T13:35:24Z</time></trkpt>
<trkpt lat="50.027836" lon="11.298196"><ele>478</ele><time>2010-08-01T13:35:25Z</time></trkpt>
<trkpt lat="50.027865" lon="11.299503"><ele>476</ele><time>2010-08-01T13:35:29Z</time></trkpt>
<trkpt lat="50.027863" lon="11.300066"><ele>474</ele><time>2010-08-01T13:35:31Z</time></trkpt>
<trkpt lat="50.027788" lon="11.301311"><ele>473</ele><time>2010-08-01T13:35:36Z</time></trkpt>
<trkpt lat="50.027682" lon="11.302769"><ele>474</ele><time>2010-08-01T13:35:42Z</time></trkpt>
<trkpt lat="50.027653" lon="11.302980"><ele>475</ele><time>2010-08-01T13:35:43Z</time></trkpt>
<trkpt lat="50.027474" lon="11.303784"><ele>476</ele><time>2010-08-01T13:35:47Z</time></trkpt>
<trkpt lat="50.027254" lon="11.304578"><ele>476</ele><time>2010-08-01T13:35:51Z</time></trkpt>
<trkpt lat="50.027215" lon="11.305011"><ele>477</ele><time>2010-08-01T13:35:53Z</time></trkpt>
<trkpt lat="50.027094" lon="11.305902"><ele>476</ele><time>2010-08-01T13:35:57Z</time></trkpt>
<trkpt lat="50.026929" lon="11.307161"><ele>477</ele><time>2010-08-01T13:36:03Z</time></trkpt>
<trkpt lat="50.026864" lon="11.308103"><ele>475</ele><time>2010-08-01T13:36:07Z</time></trkpt>
<trkpt lat="50.026851" lon="11.308674"><ele>474</ele><time>2010-08-01T13:36:09Z</time></trkpt>
<trkpt lat="50.026851" lon="11.309005"><ele>474</ele><time>2010-08-01T13:36:10Z</time></trkpt>
<trkpt lat="50.026832" lon="11.310769"><ele>472</ele><time>2010-08-01T13:36:15Z</time></trkpt>
<trkpt lat="50.026918" lon="11.311870"><ele>472</ele><time>2010-08-01T13:36:18Z</time></trkpt>
<trkpt lat="50.027098" lon="11.313082"><ele>473</ele><time>2010-08-01T13:36:21Z</time></trkpt>
<trkpt lat="50.027373" lon="11.314762"><ele>474</ele><time>2010-08-01T13:36:25Z</time></trkpt>
<trkpt lat="50.027758" lon="11.316478"><ele>475</ele><time>2010-08-01T13:36:29Z</time></trkpt>
<trkpt lat="50.028240" lon="11.318172"><ele>478</ele><time>2010-08-01T13:36:33Z</time></trkpt>
<trkpt lat="50.028731" lon="11.319730"><ele>482</ele><time>2010-08-01T13:36:37Z</time></trkpt>
<trkpt lat="50.028840" lon="11.320083"><ele>483</ele><time>2010-08-01T13:36:38Z</time></trkpt>
<trkpt lat="50.029318" lon="11.321654"><ele>484</ele><time>2010-08-01T13:36:43Z</time></trkpt>
<trkpt lat="50.029397" lon="11.321879"><ele>485</ele><time>2010-08-01T13:36:44Z</time></trkpt>
<trkpt lat="50.029602" lon="11.322602"><ele>486</ele><time>2010-08-01T13:36:47Z</time></trkpt>
<trkpt lat="50.029677" lon="11.323087"><ele>489</ele><time>2010-08-01T13:36:49Z</time></trkpt>
<trkpt lat="50.029658" lon="11.323517"><ele>489</ele><time>2010-08-01T13:36:51Z</time></trkpt>
<trkpt lat="50.029611" lon="11.323690"><ele>487</ele><time>2010-08-01T13:36:52Z</time></trkpt>
<trkpt lat="50.029438" lon="11.323951"><ele>488</ele><time>2010-08-01T13:36:54Z</time></trkpt>
<trkpt lat="50.029195" lon="11.324523"><ele>488</ele><time>2010-08-01T13:36:57Z</time></trkpt>
<trkpt lat="50.029065" lon="11.324775"><ele>488</ele><time>2010-08-01T13:36:58Z</time></trkpt>
<trkpt lat="50.028619" lon="11.325651"><ele>488</ele><time>2010-08-01T13:37:01Z</time></trkpt>
<trkpt lat="50.028423" lon="11.326004"><ele>488</ele><time>2010-08-01T13:37:02Z</time></trkpt>
<trkpt lat="50.028027" lon="11.326740"><ele>489</ele><time>2010-08-01T13:37:04Z</time></trkpt>
<trkpt lat="50.026900" lon="11.329062"><ele>491</ele><time>2010-08-01T13:37:10Z</time></trkpt>
<trkpt lat="50.026762" lon="11.329405"><ele>492</ele><time>2010-08-01T13:37:11Z</time></trkpt>
<trkpt lat="50.026447" lon="11.330881"><ele>492</ele><time>2010-08-01T13:37:15Z</time></trkpt>
<trkpt lat="50.026458" lon="11.331323"><ele>494</ele><time>2010-08-01T13:37:16Z</time></trkpt>
<trkpt lat="50.026529" lon="11.331815"><ele>495</ele><time>2010-08-01T13:37:17Z</time></trkpt>
<trkpt lat="50.026534" lon="11.334145"><ele>496</ele><time>2010-08-01T13:37:22Z</time></trkpt>
<trkpt lat="50.026496" lon="11.337055"><ele>497</ele><time>2010-08-01T13:37:28Z</time></trkpt>
<trkpt lat="50.026477" lon="11.337463"><ele>495</ele><time>2010-08-01T13:37:29Z</time></trkpt>
<trkpt lat="50.026375" lon="11.339149"><ele>494</ele><time>2010-08-01T13:37:33Z</time></trkpt>
<trkpt lat="50.026123" lon="11.340348"><ele>493</ele><time>2010-08-01T13:37:36Z</time></trkpt>
<trkpt lat="50.025763" lon="11.341890"><ele>492</ele><time>2010-08-01T13:37:40Z</time></trkpt>
<trkpt lat="50.025358" lon="11.344206"><ele>486</ele><time>2010-08-01T13:37:46Z</time></trkpt>
<trkpt lat="50.025298" lon="11.344553"><ele>483</ele><time>2010-08-01T13:37:47Z</time></trkpt>
<trkpt lat="50.025069" lon="11.346255"><ele>482</ele><time>2010-08-01T13:37:52Z</time></trkpt>
<trkpt lat="50.025030" lon="11.347759"><ele>481</ele><time>2010-08-01T13:37:56Z</time></trkpt>
<trkpt lat="50.025047" lon="11.348095"><ele>481</ele><time>2010-08-01T13:37:57Z</time></trkpt>
<trkpt lat="50.025127" lon="11.348762"><ele>480</ele><time>2010-08-01T13:37:59Z</time></trkpt>
<trkpt lat="50.025192" lon="11.349059"><ele>480</ele><time>2010-08-01T13:38:00Z</time></trkpt>
<trkpt lat="50.025374" lon="11.349638"><ele>479</ele><time>2010-08-01T13:38:02Z</time></trkpt>
<trkpt lat="50.025535" lon="11.349943"><ele>479</ele><time>2010-08-01T13:38:03Z</time></trkpt>
<trkpt lat="50.025779" lon="11.350437"><ele>478</ele><time>2010-08-01T13:38:05Z</time></trkpt>
<trkpt lat="50.025899" lon="11.350636"><ele>477</ele><time>2010-08-01T13:38:06Z</time></trkpt>
<trkpt lat="50.026282" lon="11.351153"><ele>475</ele><time>2010-08-01T13:38:09Z</time></trkpt>
<trkpt lat="50.026449" lon="11.351262"><ele>475</ele><time>2010-08-01T13:38:10Z</time></trkpt>
<trkpt lat="50.026676" lon="11.351274"><ele>473</ele><time>2010-08-01T13:38:11Z</time></trkpt>
<trkpt lat="50.027578" lon="11.351534"><ele>471</ele><time>2010-08-01T13:38:16Z</time></trkpt>
<trkpt lat="50.027837" lon="11.351382"><ele>464</ele><time>2010-08-01T13:38:18Z</time></trkpt>
<trkpt lat="50.027947" lon="11.351232"><ele>462</ele><time>2010-08-01T13:38:19Z</time></trkpt>
<trkpt lat="50.028027" lon="11.351042"><ele>461</ele><time>2010-08-01T13:38:20Z</time></trkpt>
<trkpt lat="50.028134" lon="11.350503"><ele>462</ele><time>2010-08-01T13:38:22Z</time></trkpt>
<trkpt lat="50.028179" lon="11.350239"><ele>461</ele><time>2010-08-01T13:38:23Z</time></trkpt>
<trkpt lat="50.028452" lon="11.349209"><ele>458</ele><time>2010-08-01T13:38:27Z</time></trkpt>
<trkpt lat="50.028637" lon="11.348739"><ele>457</ele><time>2010-08-01T13:38:29Z</time></trkpt>
<trkpt lat="50.029084" lon="11.347884"><ele>456</ele><time>2010-08-01T13:38:33Z</time></trkpt>
<trkpt lat="50.029566" lon="11.347297"><ele>455</ele><time>2010-08-01T13:38:36Z</time></trkpt>
<trkpt lat="50.029736" lon="11.347161"><ele>454</ele><time>2010-08-01T13:38:37Z</time></trkpt>
<trkpt lat="50.030413" lon="11.346442"><ele>453</ele><time>2010-08-01T13:38:41Z</time></trkpt>
<trkpt lat="50.030742" lon="11.345948"><ele>449</ele><time>2010-08-01T13:38:43Z</time></trkpt>
<trkpt lat="50.031006" lon="11.345451"><ele>448</ele><time>2010-08-01T13:38:45Z</time></trkpt>
<trkpt lat="50.031179" lon="11.344847"><ele>446</ele><time>2010-08-01T13:38:47Z</time></trkpt>
<trkpt lat="50.031329" lon="11.343652"><ele>441</ele><time>2010-08-01T13:38:51Z</time></trkpt>
<trkpt lat="50.031363" lon="11.343440"><ele>438</ele><time>2010-08-01T13:38:52Z</time></trkpt>
<trkpt lat="50.031647" lon="11.342964"><ele>438</ele><time>2010-08-01T13:38:55Z</time></trkpt>
<trkpt lat="50.032078" lon="11.343114"><ele>431</ele><time>2010-08-01T13:38:57Z</time></trkpt>
<trkpt lat="50.032187" lon="11.343212"><ele>432</ele><time>2010-08-01T13:38:58Z</time></trkpt>
<trkpt lat="50.032313" lon="11.343483"><ele>431</ele><time>2010-08-01T13:38:59Z</time></trkpt>
<trkpt lat="50.032445" lon="11.343699"><ele>429</ele><time>2010-08-01T13:39:00Z</time></trkpt>
<trkpt lat="50.032601" lon="11.343969"><ele>427</ele><time>2010-08-01T13:39:01Z</time></trkpt>
<trkpt lat="50.032912" lon="11.344470"><ele>422</ele><time>2010-08-01T13:39:03Z</time></trkpt>
<trkpt lat="50.033441" lon="11.345391"><ele>416</ele><time>2010-08-01T13:39:07Z</time></trkpt>
<trkpt lat="50.033945" lon="11.346524"><ele>408</ele><time>2010-08-01T13:39:12Z</time></trkpt>
<trkpt lat="50.034454" lon="11.347466"><ele>402</ele><time>2010-08-01T13:39:17Z</time></trkpt>
<trkpt lat="50.034592" lon="11.347601"><ele>398</ele><time>2010-08-01T13:39:18Z</time></trkpt>
<trkpt lat="50.035276" lon="11.348741"><ele>395</ele><time>2010-08-01T13:39:25Z</time></trkpt>
<trkpt lat="50.035356" lon="11.348907"><ele>394</ele><time>2010-08-01T13:39:26Z</time></trkpt>
<trkpt lat="50.035595" lon="11.349379"><ele>393</ele><time>2010-08-01T13:39:29Z</time></trkpt>
<trkpt lat="50.035946" lon="11.350191"><ele>391</ele><time>2010-08-01T13:39:34Z</time></trkpt>
<trkpt lat="50.036153" lon="11.350759"><ele>388</ele><time>2010-08-01T13:39:38Z</time></trkpt>
<trkpt lat="50.036266" lon="11.350976"><ele>387</ele><time>2010-08-01T13:39:40Z</time></trkpt>
<trkpt lat="50.036421" lon="11.351144"><ele>386</ele><time>2010-08-01T13:39:42Z</time></trkpt>
<trkpt lat="50.036557" lon="11.351220"><ele>386</ele><time>2010-08-01T13:39:43Z</time></trkpt>
<trkpt lat="50.036998" lon="11.351642"><ele>385</ele><time>2010-08-01T13:39:47Z</time></trkpt>
<trkpt lat="50.037072" lon="11.351805"><ele>385</ele><time>2010-08-01T13:39:48Z</time></trkpt>
<trkpt lat="50.037520" lon="11.352685"><ele>384</ele><time>2010-08-01T13:39:53Z</time></trkpt>
<trkpt lat="50.037936" lon="11.353616"><ele>383</ele><time>2010-08-01T13:39:58Z</time></trkpt>
<trkpt lat="50.038488" lon="11.354765"><ele>383</ele><time>2010-08-01T13:40:04Z</time></trkpt>
<trkpt lat="50.039078" lon="11.355744"><ele>380</ele><time>2010-08-01T13:40:09Z</time></trkpt>
<trkpt lat="50.039737" lon="11.356638"><ele>377</ele><time>2010-08-01T13:40:14Z</time></trkpt>
<trkpt lat="50.039899" lon="11.356752"><ele>376</ele><time>2010-08-01T13:40:15Z</time></trkpt>
<trkpt lat="50.040584" lon="11.357176"><ele>375</ele><time>2010-08-01T13:40:19Z</time></trkpt>
<trkpt lat="50.041032" lon="11.357394"><ele>375</ele><time>2010-08-01T13:40:21Z</time></trkpt>
<trkpt lat="50.041432" lon="11.357758"><ele>375</ele><time>2010-08-01T13:40:23Z</time></trkpt>
<trkpt lat="50.041791" lon="11.358335"><ele>373</ele><time>2010-08-01T13:40:25Z</time></trkpt>
<trkpt lat="50.042138" lon="11.358942"><ele>373</ele><time>2010-08-01T13:40:27Z</time></trkpt>
<trkpt lat="50.042787" lon="11.360156"><ele>370</ele><time>2010-08-01T13:40:31Z</time></trkpt>
<trkpt lat="50.042931" lon="11.360423"><ele>369</ele><time>2010-08-01T13:40:32Z</time></trkpt>
<trkpt lat="50.043324" lon="11.361234"><ele>365</ele><time>2010-08-01T13:40:35Z</time></trkpt>
<trkpt lat="50.043410" lon="11.361549"><ele>363</ele><time>2010-08-01T13:40:36Z</time></trkpt>
<trkpt lat="50.043526" lon="11.362118"><ele>361</ele><time>2010-08-01T13:40:38Z</time></trkpt>
<trkpt lat="50.043998" lon="11.362865"><ele>360</ele><time>2010-08-01T13:40:41Z</time></trkpt>
<trkpt lat="50.044159" lon="11.363145"><ele>360</ele><time>2010-08-01T13:40:42Z</time></trkpt>
<trkpt lat="50.044492" lon="11.363804"><ele>359</ele><time>2010-08-01T13:40:44Z</time></trkpt>
<trkpt lat="50.045389" lon="11.365854"><ele>359</ele><time>2010-08-01T13:40:50Z</time></trkpt>
<trkpt lat="50.046095" lon="11.367482"><ele>359</ele><time>2010-08-01T13:40:55Z</time></trkpt>
<trkpt lat="50.046611" lon="11.368733"><ele>359</ele><time>2010-08-01T13:40:59Z</time></trkpt>
<trkpt lat="50.046860" lon="11.369545"><ele>359</ele><time>2010-08-01T13:41:02Z</time></trkpt>
<trkpt lat="50.046939" lon="11.369773"><ele>359</ele><time>2010-08-01T13:41:03Z</time></trkpt>
<trkpt lat="50.047060" lon="11.369985"><ele>358</ele><time>2010-08-01T13:41:04Z</time></trkpt>
<trkpt lat="50.047220" lon="11.370172"><ele>357</ele><time>2010-08-01T13:41:05Z</time></trkpt>
<trkpt lat="50.047422" lon="11.370335"><ele>357</ele><time>2010-08-01T13:41:06Z</time></trkpt>
<trkpt lat="50.047881" lon="11.370689"><ele>359</ele><time>2010-08-01T13:41:08Z</time></trkpt>
<trkpt lat="50.048633" lon="11.371474"><ele>362</ele><time>2010-08-01T13:41:12Z</time></trkpt>
<trkpt lat="50.049071" lon="11.372323"><ele>364</ele><time>2010-08-01T13:41:15Z</time></trkpt>
<trkpt lat="50.049290" lon="11.372911"><ele>365</ele><time>2010-08-01T13:41:17Z</time></trkpt>
<trkpt lat="50.049568" lon="11.373379"><ele>365</ele><time>2010-08-01T13:41:19Z</time></trkpt>
<trkpt lat="50.049757" lon="11.373558"><ele>365</ele><time>2010-08-01T13:41:20Z</time></trkpt>
<trkpt lat="50.050217" lon="11.373788"><ele>364</ele><time>2010-08-01T13:41:22Z</time></trkpt>
<trkpt lat="50.051048" lon="11.374193"><ele>368</ele><time>2010-08-01T13:41:26Z</time></trkpt>
<trkpt lat="50.051698" lon="11.374721"><ele>371</ele><time>2010-08-01T13:41:29Z</time></trkpt>
<trkpt lat="50.052078" lon="11.375234"><ele>373</ele><time>2010-08-01T13:41:31Z</time></trkpt>
<trkpt lat="50.052341" lon="11.375818"><ele>374</ele><time>2010-08-01T13:41:33Z</time></trkpt>
<trkpt lat="50.052715" lon="11.376599"><ele>375</ele><time>2010-08-01T13:41:36Z</time></trkpt>
<trkpt lat="50.052905" lon="11.377026"><ele>378</ele><time>2010-08-01T13:41:38Z</time></trkpt>
<trkpt lat="50.052972" lon="11.377231"><ele>379</ele><time>2010-08-01T13:41:39Z</time></trkpt>
<trkpt lat="50.053012" lon="11.377421"><ele>380</ele><time>2010-08-01T13:41:40Z</time></trkpt>
<trkpt lat="50.053087" lon="11.378264"><ele>380</ele><time>2010-08-01T13:41:44Z</time></trkpt>
<trkpt lat="50.053017" lon="11.378438"><ele>380</ele><time>2010-08-01T13:41:45Z</time></trkpt>
<trkpt lat="50.052927" lon="11.378596"><ele>380</ele><time>2010-08-01T13:41:46Z</time></trkpt>
<trkpt lat="50.052814" lon="11.378756"><ele>380</ele><time>2010-08-01T13:41:47Z</time></trkpt>
<trkpt lat="50.052692" lon="11.378903"><ele>380</ele><time>2010-08-01T13:41:48Z</time></trkpt>
<trkpt lat="50.052547" lon="11.379028"><ele>380</ele><time>2010-08-01T13:41:49Z</time></trkpt>
<trkpt lat="50.052237" lon="11.379504"><ele>379</ele><time>2010-08-01T13:41:52Z</time></trkpt>
<trkpt lat="50.052166" lon="11.379685"><ele>379</ele><time>2010-08-01T13:41:53Z</time></trkpt>
<trkpt lat="50.052111" lon="11.379818"><ele>379</ele><time>2010-08-01T13:41:54Z</time></trkpt>
<trkpt lat="50.052012" lon="11.380213"><ele>379</ele><time>2010-08-01T13:41:57Z</time></trkpt>
<trkpt lat="50.052018" lon="11.380329"><ele>379</ele><time>2010-08-01T13:41:58Z</time></trkpt>
<trkpt lat="50.052048" lon="11.380435"><ele>379</ele><time>2010-08-01T13:41:59Z</time></trkpt>
<trkpt lat="50.052133" lon="11.380517"><ele>379</ele><time>2010-08-01T13:42:00Z</time></trkpt>
<trkpt lat="50.052172" lon="11.380568"><ele>379</ele><time>2010-08-01T13:42:02Z</time></trkpt>
<trkpt lat="50.052454" lon="11.380359"><ele>380</ele><time>2010-08-01T13:42:04Z</time></trkpt>
<trkpt lat="50.052652" lon="11.380130"><ele>380</ele><time>2010-08-01T13:42:05Z</time></trkpt>
<trkpt lat="50.052974" lon="11.379773"><ele>378</ele><time>2010-08-01T13:42:07Z</time></trkpt>
<trkpt lat="50.053184" lon="11.379696"><ele>377</ele><time>2010-08-01T13:42:09Z</time></trkpt>
<trkpt lat="50.053504" lon="11.379965"><ele>374</ele><time>2010-08-01T13:42:11Z</time></trkpt>
<trkpt lat="50.053564" lon="11.380182"><ele>374</ele><time>2010-08-01T13:42:12Z</time></trkpt>
<trkpt lat="50.053647" lon="11.380385"><ele>373</ele><time>2010-08-01T13:42:13Z</time></trkpt>
<trkpt lat="50.053723" lon="11.380549"><ele>372</ele><time>2010-08-01T13:42:14Z</time></trkpt>
<trkpt lat="50.054096" lon="11.381297"><ele>370</ele><time>2010-08-01T13:42:19Z</time></trkpt>
<trkpt lat="50.054535" lon="11.382139"><ele>368</ele><time>2010-08-01T13:42:24Z</time></trkpt>
<trkpt lat="50.054906" lon="11.382817"><ele>367</ele><time>2010-08-01T13:42:28Z</time></trkpt>
<trkpt lat="50.055503" lon="11.383794"><ele>366</ele><time>2010-08-01T13:42:34Z</time></trkpt>
<trkpt lat="50.056097" lon="11.384673"><ele>366</ele><time>2010-08-01T13:42:39Z</time></trkpt>
<trkpt lat="50.056403" lon="11.385270"><ele>366</ele><time>2010-08-01T13:42:42Z</time></trkpt>
<trkpt lat="50.056803" lon="11.386312"><ele>367</ele><time>2010-08-01T13:42:47Z</time></trkpt>
<trkpt lat="50.057196" lon="11.387384"><ele>367</ele><time>2010-08-01T13:42:52Z</time></trkpt>
<trkpt lat="50.057525" lon="11.388260"><ele>365</ele><time>2010-08-01T13:42:56Z</time></trkpt>
<trkpt lat="50.057946" lon="11.389244"><ele>364</ele><time>2010-08-01T13:43:01Z</time></trkpt>
<trkpt lat="50.058081" lon="11.389435"><ele>363</ele><time>2010-08-01T13:43:02Z</time></trkpt>
<trkpt lat="50.058212" lon="11.389569"><ele>363</ele><time>2010-08-01T13:43:03Z</time></trkpt>
<trkpt lat="50.058536" lon="11.389929"><ele>362</ele><time>2010-08-01T13:43:06Z</time></trkpt>
<trkpt lat="50.058655" lon="11.390051"><ele>362</ele><time>2010-08-01T13:43:08Z</time></trkpt>
<trkpt lat="50.058672" lon="11.390098"><ele>361</ele><time>2010-08-01T13:43:09Z</time></trkpt>
<trkpt lat="50.058687" lon="11.390148"><ele>361</ele><time>2010-08-01T13:43:10Z</time></trkpt>
<trkpt lat="50.058682" lon="11.390164"><ele>361</ele><time>2010-08-01T13:43:12Z</time></trkpt>
<trkpt lat="50.058649" lon="11.390109"><ele>361</ele><time>2010-08-01T13:43:19Z</time></trkpt>
<trkpt lat="50.058619" lon="11.390034"><ele>362</ele><time>2010-08-01T13:46:15Z</time></trkpt>
<trkpt lat="50.058619" lon="11.390034"><ele>361</ele><time>2010-08-01T13:46:16Z</time></trkpt>
<trkpt lat="50.058642" lon="11.390127"><ele>362</ele><time>2010-08-01T13:46:18Z</time></trkpt>
<trkpt lat="50.058654" lon="11.390164"><ele>363</ele><time>2010-08-01T13:46:19Z</time></trkpt>
<trkpt lat="50.058667" lon="11.390184"><ele>363</ele><time>2010-08-01T13:46:20Z</time></trkpt>
<trkpt lat="50.058690" lon="11.390187"><ele>364</ele><time>2010-08-01T13:46:21Z</time></trkpt>
<trkpt lat="50.058709" lon="11.390183"><ele>364</ele><time>2010-08-01T13:46:22Z</time></trkpt>
<trkpt lat="50.058798" lon="11.390163"><ele>364</ele><time>2010-08-01T13:46:24Z</time></trkpt>
<trkpt lat="50.058851" lon="11.390171"><ele>365</ele><time>2010-08-01T13:46:25Z</time></trkpt>
<trkpt lat="50.058912" lon="11.390201"><ele>365</ele><time>2010-08-01T13:46:26Z</time></trkpt>
<trkpt lat="50.058998" lon="11.390258"><ele>366</ele><time>2010-08-01T13:46:27Z</time></trkpt>
<trkpt lat="50.059097" lon="11.390337"><ele>366</ele><time>2010-08-01T13:46:28Z</time></trkpt>
<trkpt lat="50.059484" lon="11.390526"><ele>363</ele><time>2010-08-01T13:46:30Z</time></trkpt>
<trkpt lat="50.059752" lon="11.390700"><ele>360</ele><time>2010-08-01T13:46:31Z</time></trkpt>
<trkpt lat="50.059991" lon="11.390874"><ele>360</ele><time>2010-08-01T13:46:32Z</time></trkpt>
<trkpt lat="50.061058" lon="11.391714"><ele>358</ele><time>2010-08-01T13:46:37Z</time></trkpt>
<trkpt lat="50.061595" lon="11.392130"><ele>355</ele><time>2010-08-01T13:46:40Z</time></trkpt>
<trkpt lat="50.062417" lon="11.392742"><ele>353</ele><time>2010-08-01T13:46:45Z</time></trkpt>
<trkpt lat="50.062606" lon="11.392884"><ele>353</ele><time>2010-08-01T13:46:46Z</time></trkpt>
<trkpt lat="50.063650" lon="11.393677"><ele>352</ele><time>2010-08-01T13:46:51Z</time></trkpt>
<trkpt lat="50.064480" lon="11.394273"><ele>349</ele><time>2010-08-01T13:46:55Z</time></trkpt>
<trkpt lat="50.065743" lon="11.395192"><ele>344</ele><time>2010-08-01T13:47:01Z</time></trkpt>
<trkpt lat="50.066903" lon="11.396232"><ele>336</ele><time>2010-08-01T13:47:07Z</time></trkpt>
<trkpt lat="50.067278" lon="11.396514"><ele>333</ele><time>2010-08-01T13:47:09Z</time></trkpt>
<trkpt lat="50.067902" lon="11.396822"><ele>332</ele><time>2010-08-01T13:47:12Z</time></trkpt>
<trkpt lat="50.068149" lon="11.396902"><ele>331</ele><time>2010-08-01T13:47:13Z</time></trkpt>
<trkpt lat="50.068655" lon="11.396987"><ele>330</ele><time>2010-08-01T13:47:15Z</time></trkpt>
<trkpt lat="50.069528" lon="11.396926"><ele>331</ele><time>2010-08-01T13:47:18Z</time></trkpt>
<trkpt lat="50.070423" lon="11.396923"><ele>331</ele><time>2010-08-01T13:47:21Z</time></trkpt>
<trkpt lat="50.071015" lon="11.397079"><ele>331</ele><time>2010-08-01T13:47:23Z</time></trkpt>
<trkpt lat="50.071559" lon="11.397418"><ele>329</ele><time>2010-08-01T13:47:25Z</time></trkpt>
<trkpt lat="50.072016" lon="11.397875"><ele>329</ele><time>2010-08-01T13:47:27Z</time></trkpt>
<trkpt lat="50.072215" lon="11.398173"><ele>328</ele><time>2010-08-01T13:47:28Z</time></trkpt>
<trkpt lat="50.073232" lon="11.399015"><ele>326</ele><time>2010-08-01T13:47:32Z</time></trkpt>
<trkpt lat="50.074242" lon="11.399609"><ele>324</ele><time>2010-08-01T13:47:36Z</time></trkpt>
<trkpt lat="50.074469" lon="11.399740"><ele>322</ele><time>2010-08-01T13:47:37Z</time></trkpt>
<trkpt lat="50.075096" lon="11.400109"><ele>321</ele><time>2010-08-01T13:47:40Z</time></trkpt>
<trkpt lat="50.075461" lon="11.400369"><ele>320</ele><time>2010-08-01T13:47:42Z</time></trkpt>
<trkpt lat="50.076079" lon="11.400994"><ele>319</ele><time>2010-08-01T13:47:46Z</time></trkpt>
<trkpt lat="50.076586" lon="11.401689"><ele>317</ele><time>2010-08-01T13:47:50Z</time></trkpt>
<trkpt lat="50.077245" lon="11.402523"><ele>315</ele><time>2010-08-01T13:47:55Z</time></trkpt>
<trkpt lat="50.077688" lon="11.402930"><ele>313</ele><time>2010-08-01T13:47:58Z</time></trkpt>
<trkpt lat="50.077993" lon="11.403145"><ele>311</ele><time>2010-08-01T13:48:00Z</time></trkpt>
<trkpt lat="50.078308" lon="11.403275"><ele>310</ele><time>2010-08-01T13:48:02Z</time></trkpt>
<trkpt lat="50.078806" lon="11.403359"><ele>308</ele><time>2010-08-01T13:48:05Z</time></trkpt>
<trkpt lat="50.079621" lon="11.403366"><ele>305</ele><time>2010-08-01T13:48:10Z</time></trkpt>
<trkpt lat="50.080242" lon="11.403382"><ele>304</ele><time>2010-08-01T13:48:14Z</time></trkpt>
<trkpt lat="50.080372" lon="11.403472"><ele>303</ele><time>2010-08-01T13:48:15Z</time></trkpt>
<trkpt lat="50.080789" lon="11.403696"><ele>302</ele><time>2010-08-01T13:48:18Z</time></trkpt>
<trkpt lat="50.081452" lon="11.404154"><ele>301</ele><time>2010-08-01T13:48:23Z</time></trkpt>
<trkpt lat="50.082074" lon="11.404599"><ele>300</ele><time>2010-08-01T13:48:28Z</time></trkpt>
<trkpt lat="50.082755" lon="11.405088"><ele>301</ele><time>2010-08-01T13:48:33Z</time></trkpt>
<trkpt lat="50.083427" lon="11.405599"><ele>301</ele><time>2010-08-01T13:48:38Z</time></trkpt>
<trkpt lat="50.084209" lon="11.406202"><ele>300</ele><time>2010-08-01T13:48:44Z</time></trkpt>
<trkpt lat="50.084729" lon="11.406613"><ele>301</ele><time>2010-08-01T13:48:49Z</time></trkpt>
<trkpt lat="50.085156" lon="11.407008"><ele>301</ele><time>2010-08-01T13:48:53Z</time></trkpt>
<trkpt lat="50.085792" lon="11.407607"><ele>302</ele><time>2010-08-01T13:48:59Z</time></trkpt>
<trkpt lat="50.086474" lon="11.408439"><ele>303</ele><time>2010-08-01T13:49:05Z</time></trkpt>
<trkpt lat="50.086723" lon="11.408623"><ele>304</ele><time>2010-08-01T13:49:07Z</time></trkpt>
<trkpt lat="50.087181" lon="11.408967"><ele>307</ele><time>2010-08-01T13:49:11Z</time></trkpt>
<trkpt lat="50.087277" lon="11.409091"><ele>308</ele><time>2010-08-01T13:49:12Z</time></trkpt>
<trkpt lat="50.087362" lon="11.409220"><ele>309</ele><time>2010-08-01T13:49:13Z</time></trkpt>
<trkpt lat="50.087725" lon="11.409819"><ele>310</ele><time>2010-08-01T13:49:18Z</time></trkpt>
<trkpt lat="50.088150" lon="11.410609"><ele>311</ele><time>2010-08-01T13:49:24Z</time></trkpt>
<trkpt lat="50.088462" lon="11.411212"><ele>312</ele><time>2010-08-01T13:49:29Z</time></trkpt>
<trkpt lat="50.088729" lon="11.411710"><ele>313</ele><time>2010-08-01T13:49:33Z</time></trkpt>
<trkpt lat="50.089185" lon="11.412458"><ele>313</ele><time>2010-08-01T13:49:39Z</time></trkpt>
<trkpt lat="50.089596" lon="11.413047"><ele>314</ele><time>2010-08-01T13:49:44Z</time></trkpt>
<trkpt lat="50.089776" lon="11.413257"><ele>314</ele><time>2010-08-01T13:49:46Z</time></trkpt>
<trkpt lat="50.090264" lon="11.413713"><ele>314</ele><time>2010-08-01T13:49:51Z</time></trkpt>
<trkpt lat="50.090818" lon="11.414269"><ele>314</ele><time>2010-08-01T13:49:57Z</time></trkpt>
<trkpt lat="50.091250" lon="11.414845"><ele>314</ele><time>2010-08-01T13:50:02Z</time></trkpt>
<trkpt lat="50.091527" lon="11.415321"><ele>314</ele><time>2010-08-01T13:50:06Z</time></trkpt>
<trkpt lat="50.091689" lon="11.415702"><ele>314</ele><time>2010-08-01T13:50:09Z</time></trkpt>
<trkpt lat="50.091791" lon="11.416133"><ele>314</ele><time>2010-08-01T13:50:12Z</time></trkpt>
<trkpt lat="50.091805" lon="11.416280"><ele>315</ele><time>2010-08-01T13:50:13Z</time></trkpt>
<trkpt lat="50.091802" lon="11.416430"><ele>315</ele><time>2010-08-01T13:50:14Z</time></trkpt>
<trkpt lat="50.091830" lon="11.417041"><ele>316</ele><time>2010-08-01T13:50:18Z</time></trkpt>
<trkpt lat="50.091790" lon="11.417341"><ele>316</ele><time>2010-08-01T13:50:20Z</time></trkpt>
<trkpt lat="50.091741" lon="11.418080"><ele>316</ele><time>2010-08-01T13:50:25Z</time></trkpt>
<trkpt lat="50.091752" lon="11.418239"><ele>317</ele><time>2010-08-01T13:50:26Z</time></trkpt>
<trkpt lat="50.091835" lon="11.418870"><ele>318</ele><time>2010-08-01T13:50:31Z</time></trkpt>
<trkpt lat="50.091893" lon="11.419031"><ele>318</ele><time>2010-08-01T13:50:33Z</time></trkpt>
<trkpt lat="50.091925" lon="11.419082"><ele>318</ele><time>2010-08-01T13:50:34Z</time></trkpt>
<trkpt lat="50.091986" lon="11.419102"><ele>317</ele><time>2010-08-01T13:50:35Z</time></trkpt>
<trkpt lat="50.092197" lon="11.419037"><ele>317</ele><time>2010-08-01T13:50:37Z</time></trkpt>
<trkpt lat="50.092333" lon="11.419017"><ele>316</ele><time>2010-08-01T13:50:38Z</time></trkpt>
<trkpt lat="50.092629" lon="11.419000"><ele>315</ele><time>2010-08-01T13:50:40Z</time></trkpt>
<trkpt lat="50.093064" lon="11.419053"><ele>315</ele><time>2010-08-01T13:50:43Z</time></trkpt>
<trkpt lat="50.093198" lon="11.419095"><ele>313</ele><time>2010-08-01T13:50:44Z</time></trkpt>
<trkpt lat="50.093562" lon="11.419285"><ele>311</ele><time>2010-08-01T13:50:47Z</time></trkpt>
<trkpt lat="50.093864" lon="11.419516"><ele>310</ele><time>2010-08-01T13:50:50Z</time></trkpt>
<trkpt lat="50.094250" lon="11.419876"><ele>308</ele><time>2010-08-01T13:50:54Z</time></trkpt>
<trkpt lat="50.094590" lon="11.420146"><ele>306</ele><time>2010-08-01T13:50:57Z</time></trkpt>
<trkpt lat="50.094928" lon="11.420360"><ele>305</ele><time>2010-08-01T13:51:00Z</time></trkpt>
<trkpt lat="50.095067" lon="11.420369"><ele>304</ele><time>2010-08-01T13:51:01Z</time></trkpt>
<trkpt lat="50.095319" lon="11.420391"><ele>303</ele><time>2010-08-01T13:51:03Z</time></trkpt>
<trkpt lat="50.095571" lon="11.420356"><ele>304</ele><time>2010-08-01T13:51:05Z</time></trkpt>
<trkpt lat="50.095817" lon="11.420271"><ele>303</ele><time>2010-08-01T13:51:07Z</time></trkpt>
<trkpt lat="50.096161" lon="11.420059"><ele>303</ele><time>2010-08-01T13:51:10Z</time></trkpt>
<trkpt lat="50.096540" lon="11.419709"><ele>303</ele><time>2010-08-01T13:51:14Z</time></trkpt>
<trkpt lat="50.097159" lon="11.419075"><ele>304</ele><time>2010-08-01T13:51:20Z</time></trkpt>
<trkpt lat="50.097772" lon="11.418539"><ele>304</ele><time>2010-08-01T13:51:25Z</time></trkpt>
<trkpt lat="50.098147" lon="11.418313"><ele>304</ele><time>2010-08-01T13:51:28Z</time></trkpt>
<trkpt lat="50.098813" lon="11.418016"><ele>302</ele><time>2010-08-01T13:51:33Z</time></trkpt>
<trkpt lat="50.099411" lon="11.417877"><ele>302</ele><time>2010-08-01T13:51:37Z</time></trkpt>
<trkpt lat="50.100034" lon="11.417819"><ele>301</ele><time>2010-08-01T13:51:41Z</time></trkpt>
<trkpt lat="50.100342" lon="11.417822"><ele>301</ele><time>2010-08-01T13:51:43Z</time></trkpt>
<trkpt lat="50.101096" lon="11.417848"><ele>302</ele><time>2010-08-01T13:51:48Z</time></trkpt>
<trkpt lat="50.101940" lon="11.417890"><ele>306</ele><time>2010-08-01T13:51:54Z</time></trkpt>
<trkpt lat="50.102663" lon="11.417926"><ele>309</ele><time>2010-08-01T13:52:00Z</time></trkpt>
<trkpt lat="50.102920" lon="11.418006"><ele>310</ele><time>2010-08-01T13:52:03Z</time></trkpt>
<trkpt lat="50.102986" lon="11.418091"><ele>309</ele><time>2010-08-01T13:52:04Z</time></trkpt>
<trkpt lat="50.103047" lon="11.418224"><ele>309</ele><time>2010-08-01T13:52:05Z</time></trkpt>
<trkpt lat="50.103085" lon="11.418569"><ele>309</ele><time>2010-08-01T13:52:07Z</time></trkpt>
<trkpt lat="50.103228" lon="11.419326"><ele>308</ele><time>2010-08-01T13:52:12Z</time></trkpt>
<trkpt lat="50.103394" lon="11.420057"><ele>307</ele><time>2010-08-01T13:52:16Z</time></trkpt>
<trkpt lat="50.103670" lon="11.421313"><ele>306</ele><time>2010-08-01T13:52:22Z</time></trkpt>
<trkpt lat="50.103906" lon="11.422353"><ele>303</ele><time>2010-08-01T13:52:27Z</time></trkpt>
<trkpt lat="50.103986" lon="11.422673"><ele>301</ele><time>2010-08-01T13:52:29Z</time></trkpt>
<trkpt lat="50.104041" lon="11.422881"><ele>301</ele><time>2010-08-01T13:52:31Z</time></trkpt>
<trkpt lat="50.104118" lon="11.423026"><ele>300</ele><time>2010-08-01T13:52:33Z</time></trkpt>
<trkpt lat="50.104171" lon="11.423028"><ele>301</ele><time>2010-08-01T13:52:34Z</time></trkpt>
<trkpt lat="50.104330" lon="11.422878"><ele>302</ele><time>2010-08-01T13:52:36Z</time></trkpt>
<trkpt lat="50.104489" lon="11.422766"><ele>302</ele><time>2010-08-01T13:52:38Z</time></trkpt>
<trkpt lat="50.104647" lon="11.422720"><ele>302</ele><time>2010-08-01T13:52:40Z</time></trkpt>
<trkpt lat="50.104733" lon="11.422747"><ele>302</ele><time>2010-08-01T13:52:41Z</time></trkpt>
<trkpt lat="50.104898" lon="11.422894"><ele>301</ele><time>2010-08-01T13:52:43Z</time></trkpt>
<trkpt lat="50.104981" lon="11.423091"><ele>301</ele><time>2010-08-01T13:52:44Z</time></trkpt>
<trkpt lat="50.105041" lon="11.423331"><ele>301</ele><time>2010-08-01T13:52:45Z</time></trkpt>
<trkpt lat="50.105148" lon="11.423642"><ele>301</ele><time>2010-08-01T13:52:46Z</time></trkpt>
<trkpt lat="50.105502" lon="11.424579"><ele>300</ele><time>2010-08-01T13:52:49Z</time></trkpt>
<trkpt lat="50.105621" lon="11.424912"><ele>301</ele><time>2010-08-01T13:52:50Z</time></trkpt>
<trkpt lat="50.105769" lon="11.425313"><ele>301</ele><time>2010-08-01T13:52:51Z</time></trkpt>
<trkpt lat="50.106489" lon="11.427244"><ele>301</ele><time>2010-08-01T13:52:56Z</time></trkpt>
<trkpt lat="50.107147" lon="11.428619"><ele>302</ele><time>2010-08-01T13:53:00Z</time></trkpt>
<trkpt lat="50.108245" lon="11.430565"><ele>302</ele><time>2010-08-01T13:53:06Z</time></trkpt>
<trkpt lat="50.109175" lon="11.432130"><ele>303</ele><time>2010-08-01T13:53:11Z</time></trkpt>
<trkpt lat="50.109909" lon="11.433396"><ele>303</ele><time>2010-08-01T13:53:15Z</time></trkpt>
<trkpt lat="50.110780" lon="11.435064"><ele>304</ele><time>2010-08-01T13:53:20Z</time></trkpt>
<trkpt lat="50.111493" lon="11.436686"><ele>305</ele><time>2010-08-01T13:53:25Z</time></trkpt>
<trkpt lat="50.111952" lon="11.437887"><ele>305</ele><time>2010-08-01T13:53:29Z</time></trkpt>
<trkpt lat="50.112428" lon="11.439327"><ele>306</ele><time>2010-08-01T13:53:34Z</time></trkpt>
<trkpt lat="50.112827" lon="11.440917"><ele>307</ele><time>2010-08-01T13:53:40Z</time></trkpt>
<trkpt lat="50.113005" lon="11.442157"><ele>309</ele><time>2010-08-01T13:53:45Z</time></trkpt>
<trkpt lat="50.112983" lon="11.442384"><ele>310</ele><time>2010-08-01T13:53:46Z</time></trkpt>
<trkpt lat="50.112955" lon="11.442600"><ele>310</ele><time>2010-08-01T13:53:47Z</time></trkpt>
<trkpt lat="50.112864" lon="11.442781"><ele>310</ele><time>2010-08-01T13:53:48Z</time></trkpt>
<trkpt lat="50.112784" lon="11.443002"><ele>310</ele><time>2010-08-01T13:53:49Z</time></trkpt>
<trkpt lat="50.112657" lon="11.443629"><ele>310</ele><time>2010-08-01T13:53:52Z</time></trkpt>
<trkpt lat="50.112676" lon="11.443803"><ele>311</ele><time>2010-08-01T13:53:53Z</time></trkpt>
<trkpt lat="50.112720" lon="11.443979"><ele>312</ele><time>2010-08-01T13:53:54Z</time></trkpt>
<trkpt lat="50.112822" lon="11.444146"><ele>309</ele><time>2010-08-01T13:53:55Z</time></trkpt>
<trkpt lat="50.113137" lon="11.444975"><ele>309</ele><time>2010-08-01T13:54:00Z</time></trkpt>
<trkpt lat="50.113228" lon="11.445243"><ele>308</ele><time>2010-08-01T13:54:02Z</time></trkpt>
<trkpt lat="50.113301" lon="11.445473"><ele>308</ele><time>2010-08-01T13:54:05Z</time></trkpt>
<trkpt lat="50.113313" lon="11.445521"><ele>309</ele><time>2010-08-01T13:54:07Z</time></trkpt>
<trkpt lat="50.113315" lon="11.445502"><ele>309</ele><time>2010-08-01T13:54:08Z</time></trkpt>
<trkpt lat="50.113311" lon="11.445470"><ele>310</ele><time>2010-08-01T13:55:10Z</time></trkpt>
<trkpt lat="50.113315" lon="11.445483"><ele>310</ele><time>2010-08-01T13:55:11Z</time></trkpt>
<trkpt lat="50.113321" lon="11.445501"><ele>310</ele><time>2010-08-01T13:55:12Z</time></trkpt>
<trkpt lat="50.113333" lon="11.445530"><ele>309</ele><time>2010-08-01T13:55:13Z</time></trkpt>
<trkpt lat="50.113358" lon="11.445581"><ele>309</ele><time>2010-08-01T13:55:14Z</time></trkpt>
<trkpt lat="50.113434" lon="11.445667"><ele>308</ele><time>2010-08-01T13:55:16Z</time></trkpt>
<trkpt lat="50.113488" lon="11.445689"><ele>308</ele><time>2010-08-01T13:55:17Z</time></trkpt>
<trkpt lat="50.113545" lon="11.445678"><ele>309</ele><time>2010-08-01T13:55:18Z</time></trkpt>
<trkpt lat="50.113592" lon="11.445636"><ele>309</ele><time>2010-08-01T13:55:19Z</time></trkpt>
<trkpt lat="50.113632" lon="11.445603"><ele>310</ele><time>2010-08-01T13:55:20Z</time></trkpt>
<trkpt lat="50.113717" lon="11.445535"><ele>310</ele><time>2010-08-01T13:55:22Z</time></trkpt>
<trkpt lat="50.113834" lon="11.445373"><ele>310</ele><time>2010-08-01T13:55:25Z</time></trkpt>
<trkpt lat="50.113875" lon="11.445294"><ele>310</ele><time>2010-08-01T13:55:26Z</time></trkpt>
<trkpt lat="50.113975" lon="11.445215"><ele>310</ele><time>2010-08-01T13:55:27Z</time></trkpt>
<trkpt lat="50.114254" lon="11.444965"><ele>310</ele><time>2010-08-01T13:55:29Z</time></trkpt>
<trkpt lat="50.114566" lon="11.444730"><ele>310</ele><time>2010-08-01T13:55:31Z</time></trkpt>
<trkpt lat="50.115250" lon="11.444296"><ele>309</ele><time>2010-08-01T13:55:36Z</time></trkpt>
<trkpt lat="50.115586" lon="11.444065"><ele>308</ele><time>2010-08-01T13:55:39Z</time></trkpt>
<trkpt lat="50.115785" lon="11.443965"><ele>308</ele><time>2010-08-01T13:55:41Z</time></trkpt>
<trkpt lat="50.115956" lon="11.444007"><ele>309</ele><time>2010-08-01T13:55:43Z</time></trkpt>
<trkpt lat="50.116040" lon="11.444123"><ele>309</ele><time>2010-08-01T13:55:44Z</time></trkpt>
<trkpt lat="50.116126" lon="11.444238"><ele>310</ele><time>2010-08-01T13:55:45Z</time></trkpt>
<trkpt lat="50.116296" lon="11.444435"><ele>310</ele><time>2010-08-01T13:55:47Z</time></trkpt>
<trkpt lat="50.116498" lon="11.444566"><ele>309</ele><time>2010-08-01T13:55:49Z</time></trkpt>
<trkpt lat="50.116627" lon="11.444608"><ele>309</ele><time>2010-08-01T13:55:50Z</time></trkpt>
<trkpt lat="50.116764" lon="11.444644"><ele>310</ele><time>2010-08-01T13:55:51Z</time></trkpt>
<trkpt lat="50.117049" lon="11.444649"><ele>311</ele><time>2010-08-01T13:55:53Z</time></trkpt>
<trkpt lat="50.117323" lon="11.444560"><ele>312</ele><time>2010-08-01T13:55:55Z</time></trkpt>
<trkpt lat="50.117437" lon="11.444444"><ele>313</ele><time>2010-08-01T13:55:56Z</time></trkpt>
<trkpt lat="50.117678" lon="11.444260"><ele>315</ele><time>2010-08-01T13:55:58Z</time></trkpt>
<trkpt lat="50.118051" lon="11.444077"><ele>316</ele><time>2010-08-01T13:56:01Z</time></trkpt>
<trkpt lat="50.118190" lon="11.444072"><ele>318</ele><time>2010-08-01T13:56:02Z</time></trkpt>
<trkpt lat="50.118449" lon="11.444016"><ele>318</ele><time>2010-08-01T13:56:04Z</time></trkpt>
<trkpt lat="50.118702" lon="11.443918"><ele>319</ele><time>2010-08-01T13:56:06Z</time></trkpt>
<trkpt lat="50.118938" lon="11.443757"><ele>320</ele><time>2010-08-01T13:56:08Z</time></trkpt>
<trkpt lat="50.119001" lon="11.443616"><ele>321</ele><time>2010-08-01T13:56:09Z</time></trkpt>
<trkpt lat="50.119297" lon="11.443308"><ele>322</ele><time>2010-08-01T13:56:12Z</time></trkpt>
<trkpt lat="50.119515" lon="11.443129"><ele>325</ele><time>2010-08-01T13:56:14Z</time></trkpt>
<trkpt lat="50.119646" lon="11.443094"><ele>326</ele><time>2010-08-01T13:56:15Z</time></trkpt>
<trkpt lat="50.119923" lon="11.443035"><ele>326</ele><time>2010-08-01T13:56:17Z</time></trkpt>
<trkpt lat="50.120255" lon="11.442945"><ele>327</ele><time>2010-08-01T13:56:20Z</time></trkpt>
<trkpt lat="50.120364" lon="11.442868"><ele>329</ele><time>2010-08-01T13:56:21Z</time></trkpt>
<trkpt lat="50.120477" lon="11.442753"><ele>330</ele><time>2010-08-01T13:56:22Z</time></trkpt>
<trkpt lat="50.120580" lon="11.442605"><ele>331</ele><time>2010-08-01T13:56:23Z</time></trkpt>
<trkpt lat="50.120915" lon="11.442025"><ele>332</ele><time>2010-08-01T13:56:27Z</time></trkpt>
<trkpt lat="50.121422" lon="11.441302"><ele>335</ele><time>2010-08-01T13:56:33Z</time></trkpt>
<trkpt lat="50.121723" lon="11.440813"><ele>336</ele><time>2010-08-01T13:56:37Z</time></trkpt>
<trkpt lat="50.121868" lon="11.440387"><ele>335</ele><time>2010-08-01T13:56:40Z</time></trkpt>
<trkpt lat="50.121966" lon="11.439978"><ele>335</ele><time>2010-08-01T13:56:43Z</time></trkpt>
<trkpt lat="50.122030" lon="11.439867"><ele>335</ele><time>2010-08-01T13:56:44Z</time></trkpt>
<trkpt lat="50.122193" lon="11.439705"><ele>334</ele><time>2010-08-01T13:56:46Z</time></trkpt>
<trkpt lat="50.122298" lon="11.439687"><ele>335</ele><time>2010-08-01T13:56:47Z</time></trkpt>
<trkpt lat="50.122390" lon="11.439700"><ele>335</ele><time>2010-08-01T13:56:48Z</time></trkpt>
<trkpt lat="50.122551" lon="11.439691"><ele>335</ele><time>2010-08-01T13:56:50Z</time></trkpt>
<trkpt lat="50.122676" lon="11.439550"><ele>336</ele><time>2010-08-01T13:56:52Z</time></trkpt>
<trkpt lat="50.123071" lon="11.439104"><ele>336</ele><time>2010-08-01T13:56:57Z</time></trkpt>
<trkpt lat="50.123287" lon="11.438940"><ele>338</ele><time>2010-08-01T13:56:59Z</time></trkpt>
<trkpt lat="50.123758" lon="11.438611"><ele>338</ele><time>2010-08-01T13:57:03Z</time></trkpt>
<trkpt lat="50.124340" lon="11.438165"><ele>339</ele><time>2010-08-01T13:57:08Z</time></trkpt>
<trkpt lat="50.124542" lon="11.437922"><ele>339</ele><time>2010-08-01T13:57:10Z</time></trkpt>
<trkpt lat="50.124719" lon="11.437602"><ele>339</ele><time>2010-08-01T13:57:12Z</time></trkpt>
<trkpt lat="50.125032" lon="11.436870"><ele>338</ele><time>2010-08-01T13:57:16Z</time></trkpt>
<trkpt lat="50.125306" lon="11.436265"><ele>336</ele><time>2010-08-01T13:57:19Z</time></trkpt>
<trkpt lat="50.125418" lon="11.436082"><ele>336</ele><time>2010-08-01T13:57:20Z</time></trkpt>
<trkpt lat="50.125660" lon="11.435762"><ele>336</ele><time>2010-08-01T13:57:22Z</time></trkpt>
<trkpt lat="50.125917" lon="11.435496"><ele>335</ele><time>2010-08-01T13:57:24Z</time></trkpt>
<trkpt lat="50.126533" lon="11.434983"><ele>334</ele><time>2010-08-01T13:57:29Z</time></trkpt>
<trkpt lat="50.126662" lon="11.434914"><ele>333</ele><time>2010-08-01T13:57:30Z</time></trkpt>
<trkpt lat="50.126936" lon="11.434823"><ele>333</ele><time>2010-08-01T13:57:32Z</time></trkpt>
<trkpt lat="50.127075" lon="11.434770"><ele>333</ele><time>2010-08-01T13:57:33Z</time></trkpt>
<trkpt lat="50.127645" lon="11.434243"><ele>333</ele><time>2010-08-01T13:57:38Z</time></trkpt>
<trkpt lat="50.127721" lon="11.434107"><ele>333</ele><time>2010-08-01T13:57:39Z</time></trkpt>
<trkpt lat="50.127854" lon="11.433844"><ele>333</ele><time>2010-08-01T13:57:41Z</time></trkpt>
<trkpt lat="50.127991" lon="11.433543"><ele>333</ele><time>2010-08-01T13:57:44Z</time></trkpt>
<trkpt lat="50.128125" lon="11.433447"><ele>333</ele><time>2010-08-01T13:57:46Z</time></trkpt>
<trkpt lat="50.128248" lon="11.433499"><ele>333</ele><time>2010-08-01T13:57:47Z</time></trkpt>
<trkpt lat="50.128871" lon="11.433546"><ele>332</ele><time>2010-08-01T13:57:51Z</time></trkpt>
<trkpt lat="50.129071" lon="11.433545"><ele>333</ele><time>2010-08-01T13:57:52Z</time></trkpt>
<trkpt lat="50.129312" lon="11.433534"><ele>334</ele><time>2010-08-01T13:57:53Z</time></trkpt>
<trkpt lat="50.129796" lon="11.433517"><ele>335</ele><time>2010-08-01T13:57:55Z</time></trkpt>
<trkpt lat="50.130475" lon="11.433427"><ele>335</ele><time>2010-08-01T13:57:58Z</time></trkpt>
<trkpt lat="50.131385" lon="11.433164"><ele>333</ele><time>2010-08-01T13:58:02Z</time></trkpt>
<trkpt lat="50.132532" lon="11.432840"><ele>331</ele><time>2010-08-01T13:58:07Z</time></trkpt>
<trkpt lat="50.132763" lon="11.432838"><ele>330</ele><time>2010-08-01T13:58:08Z</time></trkpt>
<trkpt lat="50.133431" lon="11.432851"><ele>330</ele><time>2010-08-01T13:58:11Z</time></trkpt>
<trkpt lat="50.134426" lon="11.432937"><ele>329</ele><time>2010-08-01T13:58:16Z</time></trkpt>
<trkpt lat="50.134970" lon="11.432922"><ele>328</ele><time>2010-08-01T13:58:19Z</time></trkpt>
<trkpt lat="50.135414" lon="11.432856"><ele>328</ele><time>2010-08-01T13:58:22Z</time></trkpt>
<trkpt lat="50.135741" lon="11.432881"><ele>328</ele><time>2010-08-01T13:58:25Z</time></trkpt>
<trkpt lat="50.135929" lon="11.432990"><ele>328</ele><time>2010-08-01T13:58:27Z</time></trkpt>
<trkpt lat="50.135957" lon="11.433145"><ele>328</ele><time>2010-08-01T13:58:28Z</time></trkpt>
<trkpt lat="50.136010" lon="11.433312"><ele>328</ele><time>2010-08-01T13:58:29Z</time></trkpt>
<trkpt lat="50.136072" lon="11.433553"><ele>328</ele><time>2010-08-01T13:58:30Z</time></trkpt>
<trkpt lat="50.136069" lon="11.434156"><ele>327</ele><time>2010-08-01T13:58:32Z</time></trkpt>
<trkpt lat="50.136219" lon="11.435591"><ele>328</ele><time>2010-08-01T13:58:37Z</time></trkpt>
<trkpt lat="50.136351" lon="11.436102"><ele>328</ele><time>2010-08-01T13:58:39Z</time></trkpt>
<trkpt lat="50.136472" lon="11.436277"><ele>330</ele><time>2010-08-01T13:58:40Z</time></trkpt>
<trkpt lat="50.136643" lon="11.436355"><ele>329</ele><time>2010-08-01T13:58:41Z</time></trkpt>
<trkpt lat="50.137141" lon="11.437075"><ele>330</ele><time>2010-08-01T13:58:45Z</time></trkpt>
<trkpt lat="50.137676" lon="11.438191"><ele>332</ele><time>2010-08-01T13:58:50Z</time></trkpt>
<trkpt lat="50.137832" lon="11.438739"><ele>334</ele><time>2010-08-01T13:58:52Z</time></trkpt>
<trkpt lat="50.138162" lon="11.439730"><ele>335</ele><time>2010-08-01T13:58:56Z</time></trkpt>
<trkpt lat="50.138513" lon="11.440381"><ele>337</ele><time>2010-08-01T13:58:59Z</time></trkpt>
<trkpt lat="50.139098" lon="11.441500"><ele>338</ele><time>2010-08-01T13:59:04Z</time></trkpt>
<trkpt lat="50.139711" lon="11.442990"><ele>339</ele><time>2010-08-01T13:59:10Z</time></trkpt>
<trkpt lat="50.140255" lon="11.444443"><ele>342</ele><time>2010-08-01T13:59:16Z</time></trkpt>
<trkpt lat="50.140755" lon="11.445523"><ele>344</ele><time>2010-08-01T13:59:21Z</time></trkpt>
<trkpt lat="50.141248" lon="11.446341"><ele>345</ele><time>2010-08-01T13:59:25Z</time></trkpt>
<trkpt lat="50.141413" lon="11.446503"><ele>346</ele><time>2010-08-01T13:59:26Z</time></trkpt>
<trkpt lat="50.141718" lon="11.446788"><ele>348</ele><time>2010-08-01T13:59:28Z</time></trkpt>
<trkpt lat="50.141890" lon="11.446893"><ele>348</ele><time>2010-08-01T13:59:29Z</time></trkpt>
<trkpt lat="50.142174" lon="11.447101"><ele>350</ele><time>2010-08-01T13:59:31Z</time></trkpt>
<trkpt lat="50.142373" lon="11.447107"><ele>351</ele><time>2010-08-01T13:59:32Z</time></trkpt>
<trkpt lat="50.142551" lon="11.447134"><ele>352</ele><time>2010-08-01T13:59:33Z</time></trkpt>
<trkpt lat="50.142976" lon="11.447070"><ele>352</ele><time>2010-08-01T13:59:35Z</time></trkpt>
<trkpt lat="50.143191" lon="11.447009"><ele>353</ele><time>2010-08-01T13:59:36Z</time></trkpt>
<trkpt lat="50.143562" lon="11.446868"><ele>353</ele><time>2010-08-01T13:59:38Z</time></trkpt>
<trkpt lat="50.144153" lon="11.446713"><ele>353</ele><time>2010-08-01T13:59:41Z</time></trkpt>
<trkpt lat="50.144524" lon="11.446672"><ele>354</ele><time>2010-08-01T13:59:43Z</time></trkpt>
<trkpt lat="50.145097" lon="11.446741"><ele>355</ele><time>2010-08-01T13:59:46Z</time></trkpt>
<trkpt lat="50.145252" lon="11.446854"><ele>357</ele><time>2010-08-01T13:59:47Z</time></trkpt>
<trkpt lat="50.145558" lon="11.447142"><ele>358</ele><time>2010-08-01T13:59:49Z</time></trkpt>
<trkpt lat="50.145817" lon="11.447507"><ele>359</ele><time>2010-08-01T13:59:51Z</time></trkpt>
<trkpt lat="50.145928" lon="11.447708"><ele>360</ele><time>2010-08-01T13:59:52Z</time></trkpt>
<trkpt lat="50.146012" lon="11.447927"><ele>361</ele><time>2010-08-01T13:59:53Z</time></trkpt>
<trkpt lat="50.146210" lon="11.448402"><ele>362</ele><time>2010-08-01T13:59:55Z</time></trkpt>
<trkpt lat="50.146762" lon="11.449697"><ele>364</ele><time>2010-08-01T14:00:00Z</time></trkpt>
<trkpt lat="50.147507" lon="11.451332"><ele>371</ele><time>2010-08-01T14:00:06Z</time></trkpt>
<trkpt lat="50.148304" lon="11.453080"><ele>379</ele><time>2010-08-01T14:00:12Z</time></trkpt>
<trkpt lat="50.148836" lon="11.454167"><ele>387</ele><time>2010-08-01T14:00:16Z</time></trkpt>
<trkpt lat="50.149766" lon="11.455560"><ele>393</ele><time>2010-08-01T14:00:22Z</time></trkpt>
<trkpt lat="50.150156" lon="11.455855"><ele>396</ele><time>2010-08-01T14:00:24Z</time></trkpt>
<trkpt lat="50.150556" lon="11.455979"><ele>397</ele><time>2010-08-01T14:00:26Z</time></trkpt>
<trkpt lat="50.150771" lon="11.456004"><ele>398</ele><time>2010-08-01T14:00:27Z</time></trkpt>
<trkpt lat="50.151679" lon="11.456330"><ele>400</ele><time>2010-08-01T14:00:32Z</time></trkpt>
<trkpt lat="50.151968" lon="11.456609"><ele>401</ele><time>2010-08-01T14:00:34Z</time></trkpt>
<trkpt lat="50.152361" lon="11.456927"><ele>402</ele><time>2010-08-01T14:00:37Z</time></trkpt>
<trkpt lat="50.152618" lon="11.457011"><ele>402</ele><time>2010-08-01T14:00:39Z</time></trkpt>
<trkpt lat="50.152836" lon="11.457012"><ele>402</ele><time>2010-08-01T14:00:41Z</time></trkpt>
<trkpt lat="50.153066" lon="11.457057"><ele>401</ele><time>2010-08-01T14:00:43Z</time></trkpt>
<trkpt lat="50.153301" lon="11.457290"><ele>401</ele><time>2010-08-01T14:00:45Z</time></trkpt>
<trkpt lat="50.153393" lon="11.457436"><ele>401</ele><time>2010-08-01T14:00:46Z</time></trkpt>
<trkpt lat="50.153480" lon="11.457644"><ele>401</ele><time>2010-08-01T14:00:47Z</time></trkpt>
<trkpt lat="50.153885" lon="11.458267"><ele>402</ele><time>2010-08-01T14:00:51Z</time></trkpt>
<trkpt lat="50.153978" lon="11.458351"><ele>403</ele><time>2010-08-01T14:00:52Z</time></trkpt>
<trkpt lat="50.154234" lon="11.458549"><ele>403</ele><time>2010-08-01T14:00:54Z</time></trkpt>
<trkpt lat="50.154402" lon="11.458573"><ele>403</ele><time>2010-08-01T14:00:55Z</time></trkpt>
<trkpt lat="50.154727" lon="11.458655"><ele>404</ele><time>2010-08-01T14:00:57Z</time></trkpt>
<trkpt lat="50.155369" lon="11.458791"><ele>406</ele><time>2010-08-01T14:01:01Z</time></trkpt>
<trkpt lat="50.155509" lon="11.458801"><ele>407</ele><time>2010-08-01T14:01:02Z</time></trkpt>
<trkpt lat="50.155774" lon="11.458771"><ele>408</ele><time>2010-08-01T14:01:04Z</time></trkpt>
<trkpt lat="50.156126" lon="11.458641"><ele>408</ele><time>2010-08-01T14:01:07Z</time></trkpt>
<trkpt lat="50.156142" lon="11.458466"><ele>409</ele><time>2010-08-01T14:01:08Z</time></trkpt>
<trkpt lat="50.156239" lon="11.458156"><ele>410</ele><time>2010-08-01T14:01:10Z</time></trkpt>
<trkpt lat="50.156274" lon="11.457977"><ele>411</ele><time>2010-08-01T14:01:11Z</time></trkpt>
<trkpt lat="50.156304" lon="11.457819"><ele>411</ele><time>2010-08-01T14:01:12Z</time></trkpt>
<trkpt lat="50.156325" lon="11.457661"><ele>412</ele><time>2010-08-01T14:01:13Z</time></trkpt>
<trkpt lat="50.156325" lon="11.457472"><ele>412</ele><time>2010-08-01T14:01:14Z</time></trkpt>
<trkpt lat="50.156240" lon="11.457125"><ele>414</ele><time>2010-08-01T14:01:16Z</time></trkpt>
<trkpt lat="50.156162" lon="11.456842"><ele>415</ele><time>2010-08-01T14:01:18Z</time></trkpt>
<trkpt lat="50.156059" lon="11.456449"><ele>416</ele><time>2010-08-01T14:01:21Z</time></trkpt>
<trkpt lat="50.156031" lon="11.456173"><ele>416</ele><time>2010-08-01T14:01:23Z</time></trkpt>
<trkpt lat="50.155993" lon="11.455727"><ele>416</ele><time>2010-08-01T14:01:26Z</time></trkpt>
<trkpt lat="50.155961" lon="11.455584"><ele>416</ele><time>2010-08-01T14:01:27Z</time></trkpt>
<trkpt lat="50.155822" lon="11.455118"><ele>416</ele><time>2010-08-01T14:01:30Z</time></trkpt>
<trkpt lat="50.155649" lon="11.454550"><ele>418</ele><time>2010-08-01T14:01:33Z</time></trkpt>
<trkpt lat="50.155556" lon="11.454086"><ele>419</ele><time>2010-08-01T14:01:35Z</time></trkpt>
<trkpt lat="50.155493" lon="11.453480"><ele>420</ele><time>2010-08-01T14:01:37Z</time></trkpt>
<trkpt lat="50.155511" lon="11.453169"><ele>420</ele><time>2010-08-01T14:01:38Z</time></trkpt>
<trkpt lat="50.155677" lon="11.452881"><ele>421</ele><time>2010-08-01T14:01:39Z</time></trkpt>
<trkpt lat="50.156027" lon="11.451617"><ele>426</ele><time>2010-08-01T14:01:43Z</time></trkpt>
<trkpt lat="50.156351" lon="11.450526"><ele>433</ele><time>2010-08-01T14:01:47Z</time></trkpt>
<trkpt lat="50.156422" lon="11.450332"><ele>438</ele><time>2010-08-01T14:01:48Z</time></trkpt>
<trkpt lat="50.156554" lon="11.450025"><ele>441</ele><time>2010-08-01T14:01:50Z</time></trkpt>
<trkpt lat="50.156808" lon="11.449466"><ele>444</ele><time>2010-08-01T14:01:54Z</time></trkpt>
<trkpt lat="50.157151" lon="11.448782"><ele>446</ele><time>2010-08-01T14:01:59Z</time></trkpt>
<trkpt lat="50.157557" lon="11.447979"><ele>445</ele><time>2010-08-01T14:02:05Z</time></trkpt>
<trkpt lat="50.157751" lon="11.447608"><ele>445</ele><time>2010-08-01T14:02:07Z</time></trkpt>
<trkpt lat="50.157959" lon="11.447199"><ele>445</ele><time>2010-08-01T14:02:09Z</time></trkpt>
<trkpt lat="50.158220" lon="11.446757"><ele>445</ele><time>2010-08-01T14:02:11Z</time></trkpt>
<trkpt lat="50.158644" lon="11.446185"><ele>446</ele><time>2010-08-01T14:02:14Z</time></trkpt>
<trkpt lat="50.159200" lon="11.445625"><ele>444</ele><time>2010-08-01T14:02:17Z</time></trkpt>
<trkpt lat="50.160054" lon="11.444976"><ele>432</ele><time>2010-08-01T14:02:21Z</time></trkpt>
<trkpt lat="50.161189" lon="11.443945"><ele>420</ele><time>2010-08-01T14:02:27Z</time></trkpt>
<trkpt lat="50.161335" lon="11.443675"><ele>416</ele><time>2010-08-01T14:02:28Z</time></trkpt>
<trkpt lat="50.161459" lon="11.443372"><ele>415</ele><time>2010-08-01T14:02:29Z</time></trkpt>
<trkpt lat="50.162077" lon="11.442106"><ele>415</ele><time>2010-08-01T14:02:34Z</time></trkpt>
<trkpt lat="50.162498" lon="11.441476"><ele>417</ele><time>2010-08-01T14:02:37Z</time></trkpt>
<trkpt lat="50.162813" lon="11.441176"><ele>418</ele><time>2010-08-01T14:02:39Z</time></trkpt>
<trkpt lat="50.163004" lon="11.441114"><ele>418</ele><time>2010-08-01T14:02:40Z</time></trkpt>
<trkpt lat="50.163236" lon="11.441151"><ele>419</ele><time>2010-08-01T14:02:41Z</time></trkpt>
<trkpt lat="50.163472" lon="11.441286"><ele>417</ele><time>2010-08-01T14:02:42Z</time></trkpt>
<trkpt lat="50.164062" lon="11.441393"><ele>414</ele><time>2010-08-01T14:02:45Z</time></trkpt>
<trkpt lat="50.164258" lon="11.441402"><ele>410</ele><time>2010-08-01T14:02:46Z</time></trkpt>
<trkpt lat="50.164676" lon="11.441344"><ele>409</ele><time>2010-08-01T14:02:48Z</time></trkpt>
<trkpt lat="50.165666" lon="11.441056"><ele>405</ele><time>2010-08-01T14:02:53Z</time></trkpt>
<trkpt lat="50.166010" lon="11.440945"><ele>399</ele><time>2010-08-01T14:02:55Z</time></trkpt>
<trkpt lat="50.166161" lon="11.440895"><ele>398</ele><time>2010-08-01T14:02:56Z</time></trkpt>
<trkpt lat="50.166627" lon="11.440612"><ele>395</ele><time>2010-08-01T14:03:00Z</time></trkpt>
<trkpt lat="50.166710" lon="11.440501"><ele>393</ele><time>2010-08-01T14:03:01Z</time></trkpt>
<trkpt lat="50.166815" lon="11.440325"><ele>393</ele><time>2010-08-01T14:03:03Z</time></trkpt>
<trkpt lat="50.166842" lon="11.440265"><ele>392</ele><time>2010-08-01T14:03:04Z</time></trkpt>
<trkpt lat="50.166837" lon="11.440199"><ele>392</ele><time>2010-08-01T14:03:06Z</time></trkpt>
<trkpt lat="50.166846" lon="11.440176"><ele>392</ele><time>2010-08-01T14:03:07Z</time></trkpt>
<trkpt lat="50.166900" lon="11.440129"><ele>391</ele><time>2010-08-01T14:03:09Z</time></trkpt>
<trkpt lat="50.166953" lon="11.440107"><ele>391</ele><time>2010-08-01T14:03:10Z</time></trkpt>
<trkpt lat="50.167098" lon="11.440087"><ele>389</ele><time>2010-08-01T14:03:12Z</time></trkpt>
<trkpt lat="50.167370" lon="11.440013"><ele>389</ele><time>2010-08-01T14:03:15Z</time></trkpt>
<trkpt lat="50.167579" lon="11.439892"><ele>389</ele><time>2010-08-01T14:03:17Z</time></trkpt>
<trkpt lat="50.168149" lon="11.439492"><ele>389</ele><time>2010-08-01T14:03:22Z</time></trkpt>
<trkpt lat="50.168391" lon="11.439459"><ele>389</ele><time>2010-08-01T14:03:24Z</time></trkpt>
<trkpt lat="50.168493" lon="11.439504"><ele>388</ele><time>2010-08-01T14:03:25Z</time></trkpt>
<trkpt lat="50.168648" lon="11.439701"><ele>388</ele><time>2010-08-01T14:03:27Z</time></trkpt>
<trkpt lat="50.168914" lon="11.439827"><ele>387</ele><time>2010-08-01T14:03:30Z</time></trkpt>
<trkpt lat="50.169004" lon="11.439757"><ele>388</ele><time>2010-08-01T14:03:31Z</time></trkpt>
<trkpt lat="50.169090" lon="11.439692"><ele>388</ele><time>2010-08-01T14:03:32Z</time></trkpt>
<trkpt lat="50.169265" lon="11.439608"><ele>388</ele><time>2010-08-01T14:03:34Z</time></trkpt>
<trkpt lat="50.169367" lon="11.439628"><ele>387</ele><time>2010-08-01T14:03:35Z</time></trkpt>
<trkpt lat="50.169458" lon="11.439646"><ele>387</ele><time>2010-08-01T14:03:36Z</time></trkpt>
<trkpt lat="50.169557" lon="11.439725"><ele>388</ele><time>2010-08-01T14:03:37Z</time></trkpt>
<trkpt lat="50.169856" lon="11.439911"><ele>388</ele><time>2010-08-01T14:03:40Z</time></trkpt>
<trkpt lat="50.170057" lon="11.440078"><ele>388</ele><time>2010-08-01T14:03:42Z</time></trkpt>
<trkpt lat="50.170166" lon="11.440204"><ele>389</ele><time>2010-08-01T14:03:43Z</time></trkpt>
<trkpt lat="50.170413" lon="11.440542"><ele>389</ele><time>2010-08-01T14:03:45Z</time></trkpt>
<trkpt lat="50.170651" lon="11.441051"><ele>390</ele><time>2010-08-01T14:03:47Z</time></trkpt>
<trkpt lat="50.170876" lon="11.441605"><ele>391</ele><time>2010-08-01T14:03:49Z</time></trkpt>
<trkpt lat="50.171073" lon="11.442238"><ele>392</ele><time>2010-08-01T14:03:51Z</time></trkpt>
<trkpt lat="50.171575" lon="11.443984"><ele>392</ele><time>2010-08-01T14:03:56Z</time></trkpt>
<trkpt lat="50.172204" lon="11.446162"><ele>394</ele><time>2010-08-01T14:04:02Z</time></trkpt>
<trkpt lat="50.172492" lon="11.447672"><ele>399</ele><time>2010-08-01T14:04:06Z</time></trkpt>
<trkpt lat="50.172609" lon="11.448355"><ele>404</ele><time>2010-08-01T14:04:08Z</time></trkpt>
<trkpt lat="50.172899" lon="11.449514"><ele>408</ele><time>2010-08-01T14:04:12Z</time></trkpt>
<trkpt lat="50.173369" lon="11.450227"><ele>411</ele><time>2010-08-01T14:04:15Z</time></trkpt>
<trkpt lat="50.173574" lon="11.450370"><ele>416</ele><time>2010-08-01T14:04:16Z</time></trkpt>
<trkpt lat="50.173804" lon="11.450464"><ele>419</ele><time>2010-08-01T14:04:17Z</time></trkpt>
<trkpt lat="50.174028" lon="11.450555"><ele>421</ele><time>2010-08-01T14:04:18Z</time></trkpt>
<trkpt lat="50.174680" lon="11.450700"><ele>424</ele><time>2010-08-01T14:04:21Z</time></trkpt>
<trkpt lat="50.175561" lon="11.450851"><ele>432</ele><time>2010-08-01T14:04:25Z</time></trkpt>
<trkpt lat="50.176207" lon="11.451076"><ele>439</ele><time>2010-08-01T14:04:28Z</time></trkpt>
<trkpt lat="50.176817" lon="11.451398"><ele>441</ele><time>2010-08-01T14:04:31Z</time></trkpt>
<trkpt lat="50.177767" lon="11.452050"><ele>442</ele><time>2010-08-01T14:04:36Z</time></trkpt>
<trkpt lat="50.178535" lon="11.452686"><ele>440</ele><time>2010-08-01T14:04:40Z</time></trkpt>
<trkpt lat="50.179457" lon="11.453534"><ele>438</ele><time>2010-08-01T14:04:45Z</time></trkpt>
<trkpt lat="50.179932" lon="11.454220"><ele>437</ele><time>2010-08-01T14:04:48Z</time></trkpt>
<trkpt lat="50.180140" lon="11.454728"><ele>437</ele><time>2010-08-01T14:04:50Z</time></trkpt>
<trkpt lat="50.180606" lon="11.455884"><ele>437</ele><time>2010-08-01T14:04:55Z</time></trkpt>
<trkpt lat="50.180742" lon="11.456301"><ele>437</ele><time>2010-08-01T14:04:57Z</time></trkpt>
<trkpt lat="50.180956" lon="11.457154"><ele>436</ele><time>2010-08-01T14:05:01Z</time></trkpt>
<trkpt lat="50.181120" lon="11.458159"><ele>434</ele><time>2010-08-01T14:05:05Z</time></trkpt>
<trkpt lat="50.181361" lon="11.459575"><ele>433</ele><time>2010-08-01T14:05:10Z</time></trkpt>
<trkpt lat="50.181434" lon="11.459848"><ele>431</ele><time>2010-08-01T14:05:11Z</time></trkpt>
<trkpt lat="50.181684" lon="11.460579"><ele>430</ele><time>2010-08-01T14:05:14Z</time></trkpt>
<trkpt lat="50.181964" lon="11.460989"><ele>428</ele><time>2010-08-01T14:05:16Z</time></trkpt>
<trkpt lat="50.182130" lon="11.461170"><ele>427</ele><time>2010-08-01T14:05:17Z</time></trkpt>
<trkpt lat="50.182294" lon="11.461333"><ele>427</ele><time>2010-08-01T14:05:18Z</time></trkpt>
<trkpt lat="50.183130" lon="11.462170"><ele>426</ele><time>2010-08-01T14:05:23Z</time></trkpt>
<trkpt lat="50.183284" lon="11.462421"><ele>425</ele><time>2010-08-01T14:05:24Z</time></trkpt>
<trkpt lat="50.183444" lon="11.462730"><ele>425</ele><time>2010-08-01T14:05:25Z</time></trkpt>
<trkpt lat="50.183905" lon="11.463717"><ele>423</ele><time>2010-08-01T14:05:28Z</time></trkpt>
<trkpt lat="50.184669" lon="11.465399"><ele>419</ele><time>2010-08-01T14:05:33Z</time></trkpt>
<trkpt lat="50.185337" lon="11.466836"><ele>413</ele><time>2010-08-01T14:05:37Z</time></trkpt>
<trkpt lat="50.186441" lon="11.468960"><ele>407</ele><time>2010-08-01T14:05:43Z</time></trkpt>
<trkpt lat="50.187307" lon="11.470517"><ele>401</ele><time>2010-08-01T14:05:48Z</time></trkpt>
<trkpt lat="50.187956" lon="11.471641"><ele>396</ele><time>2010-08-01T14:05:52Z</time></trkpt>
<trkpt lat="50.188634" lon="11.472734"><ele>393</ele><time>2010-08-01T14:05:56Z</time></trkpt>
<trkpt lat="50.189371" lon="11.473637"><ele>390</ele><time>2010-08-01T14:06:00Z</time></trkpt>
<trkpt lat="50.190082" lon="11.474476"><ele>387</ele><time>2010-08-01T14:06:04Z</time></trkpt>
<trkpt lat="50.190446" lon="11.475167"><ele>385</ele><time>2010-08-01T14:06:07Z</time></trkpt>
<trkpt lat="50.190625" lon="11.475702"><ele>382</ele><time>2010-08-01T14:06:09Z</time></trkpt>
<trkpt lat="50.190775" lon="11.476436"><ele>382</ele><time>2010-08-01T14:06:12Z</time></trkpt>
<trkpt lat="50.190813" lon="11.476789"><ele>382</ele><time>2010-08-01T14:06:14Z</time></trkpt>
<trkpt lat="50.190834" lon="11.476985"><ele>382</ele><time>2010-08-01T14:06:16Z</time></trkpt>
<trkpt lat="50.190793" lon="11.476978"><ele>383</ele><time>2010-08-01T14:06:17Z</time></trkpt>
<trkpt lat="50.190783" lon="11.477012"><ele>383</ele><time>2010-08-01T14:06:18Z</time></trkpt>
<trkpt lat="50.190785" lon="11.477185"><ele>383</ele><time>2010-08-01T14:06:24Z</time></trkpt>
<trkpt lat="50.190793" lon="11.477201"><ele>383</ele><time>2010-08-01T14:06:26Z</time></trkpt>
<trkpt lat="50.190811" lon="11.477425"><ele>382</ele><time>2010-08-01T14:06:29Z</time></trkpt>
<trkpt lat="50.190821" lon="11.477522"><ele>382</ele><time>2010-08-01T14:06:30Z</time></trkpt>
<trkpt lat="50.190839" lon="11.477632"><ele>382</ele><time>2010-08-01T14:06:31Z</time></trkpt>
<trkpt lat="50.190871" lon="11.477727"><ele>382</ele><time>2010-08-01T14:06:32Z</time></trkpt>
<trkpt lat="50.190929" lon="11.477822"><ele>381</ele><time>2010-08-01T14:06:33Z</time></trkpt>
<trkpt lat="50.191174" lon="11.477911"><ele>378</ele><time>2010-08-01T14:06:35Z</time></trkpt>
<trkpt lat="50.191279" lon="11.477935"><ele>379</ele><time>2010-08-01T14:06:36Z</time></trkpt>
<trkpt lat="50.191377" lon="11.477980"><ele>380</ele><time>2010-08-01T14:06:37Z</time></trkpt>
<trkpt lat="50.191567" lon="11.478103"><ele>380</ele><time>2010-08-01T14:06:39Z</time></trkpt>
<trkpt lat="50.191655" lon="11.478208"><ele>381</ele><time>2010-08-01T14:06:40Z</time></trkpt>
<trkpt lat="50.191839" lon="11.478446"><ele>379</ele><time>2010-08-01T14:06:42Z</time></trkpt>
<trkpt lat="50.192054" lon="11.478645"><ele>380</ele><time>2010-08-01T14:06:44Z</time></trkpt>
<trkpt lat="50.192186" lon="11.478690"><ele>378</ele><time>2010-08-01T14:06:45Z</time></trkpt>
<trkpt lat="50.192291" lon="11.478712"><ele>379</ele><time>2010-08-01T14:06:46Z</time></trkpt>
<trkpt lat="50.192512" lon="11.478708"><ele>378</ele><time>2010-08-01T14:06:48Z</time></trkpt>
<trkpt lat="50.192736" lon="11.478678"><ele>377</ele><time>2010-08-01T14:06:50Z</time></trkpt>
<trkpt lat="50.192908" lon="11.478765"><ele>377</ele><time>2010-08-01T14:06:52Z</time></trkpt>
<trkpt lat="50.192983" lon="11.478900"><ele>378</ele><time>2010-08-01T14:06:53Z</time></trkpt>
<trkpt lat="50.192955" lon="11.479219"><ele>376</ele><time>2010-08-01T14:06:55Z</time></trkpt>
<trkpt lat="50.193104" lon="11.479946"><ele>376</ele><time>2010-08-01T14:06:59Z</time></trkpt>
<trkpt lat="50.193335" lon="11.481149"><ele>380</ele><time>2010-08-01T14:07:05Z</time></trkpt>
<trkpt lat="50.193477" lon="11.481784"><ele>383</ele><time>2010-08-01T14:07:08Z</time></trkpt>
<trkpt lat="50.193686" lon="11.482397"><ele>385</ele><time>2010-08-01T14:07:11Z</time></trkpt>
<trkpt lat="50.193858" lon="11.482576"><ele>385</ele><time>2010-08-01T14:07:12Z</time></trkpt>
<trkpt lat="50.194064" lon="11.482747"><ele>385</ele><time>2010-08-01T14:07:13Z</time></trkpt>
<trkpt lat="50.194512" lon="11.483066"><ele>386</ele><time>2010-08-01T14:07:15Z</time></trkpt>
<trkpt lat="50.195008" lon="11.483334"><ele>386</ele><time>2010-08-01T14:07:17Z</time></trkpt>
<trkpt lat="50.195526" lon="11.483468"><ele>387</ele><time>2010-08-01T14:07:19Z</time></trkpt>
<trkpt lat="50.196509" lon="11.483759"><ele>388</ele><time>2010-08-01T14:07:23Z</time></trkpt>
<trkpt lat="50.197007" lon="11.484084"><ele>390</ele><time>2010-08-01T14:07:25Z</time></trkpt>
<trkpt lat="50.197243" lon="11.484318"><ele>390</ele><time>2010-08-01T14:07:26Z</time></trkpt>
<trkpt lat="50.198452" lon="11.485181"><ele>392</ele><time>2010-08-01T14:07:31Z</time></trkpt>
<trkpt lat="50.199747" lon="11.485853"><ele>396</ele><time>2010-08-01T14:07:36Z</time></trkpt>
<trkpt lat="50.200765" lon="11.486436"><ele>400</ele><time>2010-08-01T14:07:40Z</time></trkpt>
<trkpt lat="50.201486" lon="11.487093"><ele>402</ele><time>2010-08-01T14:07:43Z</time></trkpt>
<trkpt lat="50.202389" lon="11.488143"><ele>403</ele><time>2010-08-01T14:07:47Z</time></trkpt>
<trkpt lat="50.203516" lon="11.489489"><ele>404</ele><time>2010-08-01T14:07:52Z</time></trkpt>
<trkpt lat="50.204805" lon="11.490770"><ele>408</ele><time>2010-08-01T14:07:58Z</time></trkpt>
<trkpt lat="50.205007" lon="11.490952"><ele>412</ele><time>2010-08-01T14:07:59Z</time></trkpt>
<trkpt lat="50.205599" lon="11.491441"><ele>414</ele><time>2010-08-01T14:08:02Z</time></trkpt>
<trkpt lat="50.206030" lon="11.491656"><ele>416</ele><time>2010-08-01T14:08:04Z</time></trkpt>
<trkpt lat="50.206765" lon="11.491848"><ele>416</ele><time>2010-08-01T14:08:07Z</time></trkpt>
<trkpt lat="50.207502" lon="11.492161"><ele>419</ele><time>2010-08-01T14:08:10Z</time></trkpt>
<trkpt lat="50.207719" lon="11.492362"><ele>419</ele><time>2010-08-01T14:08:11Z</time></trkpt>
<trkpt lat="50.208664" lon="11.493195"><ele>422</ele><time>2010-08-01T14:08:16Z</time></trkpt>
<trkpt lat="50.208805" lon="11.493378"><ele>424</ele><time>2010-08-01T14:08:17Z</time></trkpt>
<trkpt lat="50.209234" lon="11.494078"><ele>426</ele><time>2010-08-01T14:08:21Z</time></trkpt>
<trkpt lat="50.209305" lon="11.494234"><ele>429</ele><time>2010-08-01T14:08:22Z</time></trkpt>
<trkpt lat="50.209395" lon="11.494490"><ele>431</ele><time>2010-08-01T14:08:24Z</time></trkpt>
<trkpt lat="50.209512" lon="11.494645"><ele>436</ele><time>2010-08-01T14:08:26Z</time></trkpt>
<trkpt lat="50.209647" lon="11.494704"><ele>441</ele><time>2010-08-01T14:08:28Z</time></trkpt>
<trkpt lat="50.209725" lon="11.494669"><ele>442</ele><time>2010-08-01T14:08:29Z</time></trkpt>
<trkpt lat="50.209789" lon="11.494636"><ele>443</ele><time>2010-08-01T14:08:30Z</time></trkpt>
<trkpt lat="50.209842" lon="11.494594"><ele>444</ele><time>2010-08-01T14:08:31Z</time></trkpt>
<trkpt lat="50.209855" lon="11.494483"><ele>444</ele><time>2010-08-01T14:08:32Z</time></trkpt>
<trkpt lat="50.209939" lon="11.494211"><ele>445</ele><time>2010-08-01T14:08:34Z</time></trkpt>
<trkpt lat="50.210139" lon="11.493558"><ele>446</ele><time>2010-08-01T14:08:38Z</time></trkpt>
<trkpt lat="50.210344" lon="11.492819"><ele>448</ele><time>2010-08-01T14:08:43Z</time></trkpt>
<trkpt lat="50.210496" lon="11.492398"><ele>452</ele><time>2010-08-01T14:08:46Z</time></trkpt>
<trkpt lat="50.210674" lon="11.492244"><ele>456</ele><time>2010-08-01T14:08:48Z</time></trkpt>
<trkpt lat="50.210781" lon="11.492033"><ele>458</ele><time>2010-08-01T14:08:50Z</time></trkpt>
<trkpt lat="50.210934" lon="11.491689"><ele>461</ele><time>2010-08-01T14:08:53Z</time></trkpt>
<trkpt lat="50.211079" lon="11.491485"><ele>463</ele><time>2010-08-01T14:08:55Z</time></trkpt>
<trkpt lat="50.211358" lon="11.491116"><ele>467</ele><time>2010-08-01T14:08:59Z</time></trkpt>
<trkpt lat="50.211511" lon="11.491015"><ele>470</ele><time>2010-08-01T14:09:01Z</time></trkpt>
<trkpt lat="50.211603" lon="11.491020"><ele>472</ele><time>2010-08-01T14:09:02Z</time></trkpt>
<trkpt lat="50.211699" lon="11.491038"><ele>473</ele><time>2010-08-01T14:09:03Z</time></trkpt>
<trkpt lat="50.212126" lon="11.491138"><ele>478</ele><time>2010-08-01T14:09:08Z</time></trkpt>
<trkpt lat="50.212480" lon="11.491282"><ele>483</ele><time>2010-08-01T14:09:12Z</time></trkpt>
<trkpt lat="50.212636" lon="11.491447"><ele>487</ele><time>2010-08-01T14:09:14Z</time></trkpt>
<trkpt lat="50.212798" lon="11.491576"><ele>488</ele><time>2010-08-01T14:09:16Z</time></trkpt>
<trkpt lat="50.212957" lon="11.491639"><ele>489</ele><time>2010-08-01T14:09:18Z</time></trkpt>
<trkpt lat="50.213019" lon="11.491539"><ele>491</ele><time>2010-08-01T14:09:19Z</time></trkpt>
<trkpt lat="50.213195" lon="11.491170"><ele>495</ele><time>2010-08-01T14:09:21Z</time></trkpt>
<trkpt lat="50.213275" lon="11.490949"><ele>498</ele><time>2010-08-01T14:09:22Z</time></trkpt>
<trkpt lat="50.213714" lon="11.490133"><ele>505</ele><time>2010-08-01T14:09:27Z</time></trkpt>
<trkpt lat="50.213837" lon="11.490045"><ele>509</ele><time>2010-08-01T14:09:28Z</time></trkpt>
<trkpt lat="50.213977" lon="11.489992"><ele>510</ele><time>2010-08-01T14:09:29Z</time></trkpt>
<trkpt lat="50.214140" lon="11.489965"><ele>510</ele><time>2010-08-01T14:09:30Z</time></trkpt>
<trkpt lat="50.214801" lon="11.489767"><ele>512</ele><time>2010-08-01T14:09:34Z</time></trkpt>
<trkpt lat="50.215124" lon="11.489530"><ele>514</ele><time>2010-08-01T14:09:36Z</time></trkpt>
<trkpt lat="50.215430" lon="11.489322"><ele>515</ele><time>2010-08-01T14:09:38Z</time></trkpt>
<trkpt lat="50.215586" lon="11.489271"><ele>516</ele><time>2010-08-01T14:09:39Z</time></trkpt>
<trkpt lat="50.215910" lon="11.489348"><ele>518</ele><time>2010-08-01T14:09:41Z</time></trkpt>
<trkpt lat="50.216100" lon="11.489422"><ele>520</ele><time>2010-08-01T14:09:42Z</time></trkpt>
<trkpt lat="50.217037" lon="11.489721"><ele>523</ele><time>2010-08-01T14:09:47Z</time></trkpt>
<trkpt lat="50.217788" lon="11.489949"><ele>529</ele><time>2010-08-01T14:09:51Z</time></trkpt>
<trkpt lat="50.218142" lon="11.489947"><ele>534</ele><time>2010-08-01T14:09:53Z</time></trkpt>
<trkpt lat="50.218511" lon="11.489879"><ele>537</ele><time>2010-08-01T14:09:55Z</time></trkpt>
<trkpt lat="50.219205" lon="11.489752"><ele>542</ele><time>2010-08-01T14:09:59Z</time></trkpt>
<trkpt lat="50.219684" lon="11.489866"><ele>546</ele><time>2010-08-01T14:10:02Z</time></trkpt>
<trkpt lat="50.219821" lon="11.489957"><ele>547</ele><time>2010-08-01T14:10:03Z</time></trkpt>
<trkpt lat="50.220224" lon="11.490248"><ele>549</ele><time>2010-08-01T14:10:06Z</time></trkpt>
<trkpt lat="50.220498" lon="11.490541"><ele>552</ele><time>2010-08-01T14:10:08Z</time></trkpt>
<trkpt lat="50.221405" lon="11.491531"><ele>556</ele><time>2010-08-01T14:10:14Z</time></trkpt>
<trkpt lat="50.221582" lon="11.491645"><ele>558</ele><time>2010-08-01T14:10:15Z</time></trkpt>
<trkpt lat="50.221794" lon="11.491716"><ele>557</ele><time>2010-08-01T14:10:16Z</time></trkpt>
<trkpt lat="50.222258" lon="11.491771"><ele>558</ele><time>2010-08-01T14:10:18Z</time></trkpt>
<trkpt lat="50.223392" lon="11.491779"><ele>564</ele><time>2010-08-01T14:10:23Z</time></trkpt>
<trkpt lat="50.223601" lon="11.491735"><ele>566</ele><time>2010-08-01T14:10:24Z</time></trkpt>
<trkpt lat="50.223791" lon="11.491624"><ele>567</ele><time>2010-08-01T14:10:25Z</time></trkpt>
<trkpt lat="50.224156" lon="11.491303"><ele>568</ele><time>2010-08-01T14:10:27Z</time></trkpt>
<trkpt lat="50.224435" lon="11.490843"><ele>569</ele><time>2010-08-01T14:10:29Z</time></trkpt>
<trkpt lat="50.225173" lon="11.490084"><ele>569</ele><time>2010-08-01T14:10:34Z</time></trkpt>
<trkpt lat="50.225377" lon="11.490109"><ele>572</ele><time>2010-08-01T14:10:35Z</time></trkpt>
<trkpt lat="50.225587" lon="11.490140"><ele>573</ele><time>2010-08-01T14:10:36Z</time></trkpt>
<trkpt lat="50.226388" lon="11.489940"><ele>575</ele><time>2010-08-01T14:10:41Z</time></trkpt>
<trkpt lat="50.226443" lon="11.489729"><ele>577</ele><time>2010-08-01T14:10:42Z</time></trkpt>
<trkpt lat="50.226498" lon="11.489501"><ele>578</ele><time>2010-08-01T14:10:43Z</time></trkpt>
<trkpt lat="50.226547" lon="11.489183"><ele>579</ele><time>2010-08-01T14:10:44Z</time></trkpt>
<trkpt lat="50.226627" lon="11.488833"><ele>579</ele><time>2010-08-01T14:10:45Z</time></trkpt>
<trkpt lat="50.227162" lon="11.487192"><ele>580</ele><time>2010-08-01T14:10:51Z</time></trkpt>
<trkpt lat="50.227297" lon="11.487002"><ele>580</ele><time>2010-08-01T14:10:52Z</time></trkpt>
<trkpt lat="50.227673" lon="11.486754"><ele>581</ele><time>2010-08-01T14:10:54Z</time></trkpt>
<trkpt lat="50.227912" lon="11.486723"><ele>581</ele><time>2010-08-01T14:10:55Z</time></trkpt>
<trkpt lat="50.228152" lon="11.486733"><ele>580</ele><time>2010-08-01T14:10:56Z</time></trkpt>
<trkpt lat="50.228397" lon="11.486769"><ele>582</ele><time>2010-08-01T14:10:57Z</time></trkpt>
<trkpt lat="50.229568" lon="11.486767"><ele>586</ele><time>2010-08-01T14:11:02Z</time></trkpt>
<trkpt lat="50.230244" lon="11.486767"><ele>590</ele><time>2010-08-01T14:11:05Z</time></trkpt>
<trkpt lat="50.230680" lon="11.486769"><ele>593</ele><time>2010-08-01T14:11:07Z</time></trkpt>
<trkpt lat="50.231600" lon="11.486768"><ele>596</ele><time>2010-08-01T14:11:11Z</time></trkpt>
<trkpt lat="50.231815" lon="11.486767"><ele>598</ele><time>2010-08-01T14:11:12Z</time></trkpt>
<trkpt lat="50.232227" lon="11.486771"><ele>599</ele><time>2010-08-01T14:11:14Z</time></trkpt>
<trkpt lat="50.232612" lon="11.486835"><ele>599</ele><time>2010-08-01T14:11:16Z</time></trkpt>
<trkpt lat="50.232989" lon="11.486995"><ele>599</ele><time>2010-08-01T14:11:18Z</time></trkpt>
<trkpt lat="50.233078" lon="11.487254"><ele>599</ele><time>2010-08-01T14:11:19Z</time></trkpt>
<trkpt lat="50.233213" lon="11.487780"><ele>602</ele><time>2010-08-01T14:11:21Z</time></trkpt>
<trkpt lat="50.233443" lon="11.488385"><ele>604</ele><time>2010-08-01T14:11:25Z</time></trkpt>
<trkpt lat="50.233441" lon="11.488409"><ele>604</ele><time>2010-08-01T14:11:26Z</time></trkpt>
<trkpt lat="50.233519" lon="11.488351"><ele>605</ele><time>2010-08-01T14:11:28Z</time></trkpt>
<trkpt lat="50.233551" lon="11.488250"><ele>605</ele><time>2010-08-01T14:11:29Z</time></trkpt>
<trkpt lat="50.233586" lon="11.488083"><ele>606</ele><time>2010-08-01T14:11:30Z</time></trkpt>
<trkpt lat="50.233636" lon="11.487827"><ele>606</ele><time>2010-08-01T14:11:31Z</time></trkpt>
<trkpt lat="50.233711" lon="11.487246"><ele>607</ele><time>2010-08-01T14:11:34Z</time></trkpt>
<trkpt lat="50.233668" lon="11.486973"><ele>607</ele><time>2010-08-01T14:11:35Z</time></trkpt>
<trkpt lat="50.233532" lon="11.486379"><ele>610</ele><time>2010-08-01T14:11:37Z</time></trkpt>
<trkpt lat="50.233431" lon="11.486090"><ele>613</ele><time>2010-08-01T14:11:38Z</time></trkpt>
<trkpt lat="50.233193" lon="11.485081"><ele>615</ele><time>2010-08-01T14:11:41Z</time></trkpt>
<trkpt lat="50.233002" lon="11.483695"><ele>619</ele><time>2010-08-01T14:11:45Z</time></trkpt>
<trkpt lat="50.232999" lon="11.483427"><ele>621</ele><time>2010-08-01T14:11:46Z</time></trkpt>
<trkpt lat="50.233085" lon="11.482988"><ele>622</ele><time>2010-08-01T14:11:48Z</time></trkpt>
<trkpt lat="50.233181" lon="11.482784"><ele>623</ele><time>2010-08-01T14:11:49Z</time></trkpt>
<trkpt lat="50.233272" lon="11.482634"><ele>623</ele><time>2010-08-01T14:11:50Z</time></trkpt>
<trkpt lat="50.233456" lon="11.482699"><ele>624</ele><time>2010-08-01T14:11:51Z</time></trkpt>
<trkpt lat="50.233656" lon="11.482815"><ele>625</ele><time>2010-08-01T14:11:52Z</time></trkpt>
<trkpt lat="50.234057" lon="11.483058"><ele>627</ele><time>2010-08-01T14:11:54Z</time></trkpt>
<trkpt lat="50.234287" lon="11.483178"><ele>627</ele><time>2010-08-01T14:11:55Z</time></trkpt>
<trkpt lat="50.234979" lon="11.483327"><ele>628</ele><time>2010-08-01T14:11:58Z</time></trkpt>
<trkpt lat="50.235632" lon="11.483249"><ele>629</ele><time>2010-08-01T14:12:01Z</time></trkpt>
<trkpt lat="50.236310" lon="11.482869"><ele>630</ele><time>2010-08-01T14:12:05Z</time></trkpt>
<trkpt lat="50.236390" lon="11.482669"><ele>630</ele><time>2010-08-01T14:12:06Z</time></trkpt>
<trkpt lat="50.236477" lon="11.482233"><ele>634</ele><time>2010-08-01T14:12:08Z</time></trkpt>
<trkpt lat="50.236485" lon="11.482040"><ele>637</ele><time>2010-08-01T14:12:09Z</time></trkpt>
<trkpt lat="50.236955" lon="11.481022"><ele>643</ele><time>2010-08-01T14:12:15Z</time></trkpt>
<trkpt lat="50.237098" lon="11.480791"><ele>648</ele><time>2010-08-01T14:12:17Z</time></trkpt>
<trkpt lat="50.237172" lon="11.480730"><ele>649</ele><time>2010-08-01T14:12:18Z</time></trkpt>
<trkpt lat="50.237204" lon="11.480692"><ele>652</ele><time>2010-08-01T14:12:19Z</time></trkpt>
<trkpt lat="50.237214" lon="11.480675"><ele>655</ele><time>2010-08-01T14:12:21Z</time></trkpt>
<trkpt lat="50.237224" lon="11.480690"><ele>655</ele><time>2010-08-01T14:12:23Z</time></trkpt>
<trkpt lat="50.237204" lon="11.480656"><ele>659</ele><time>2010-08-01T14:12:28Z</time></trkpt>
<trkpt lat="50.237183" lon="11.480632"><ele>662</ele><time>2010-08-01T14:12:30Z</time></trkpt>
<trkpt lat="50.237143" lon="11.480648"><ele>663</ele><time>2010-08-01T14:12:31Z</time></trkpt>
<trkpt lat="50.237090" lon="11.480685"><ele>663</ele><time>2010-08-01T14:12:32Z</time></trkpt>
<trkpt lat="50.236975" lon="11.480832"><ele>664</ele><time>2010-08-01T14:12:34Z</time></trkpt>
<trkpt lat="50.236841" lon="11.481080"><ele>663</ele><time>2010-08-01T14:12:35Z</time></trkpt>
<trkpt lat="50.236704" lon="11.481309"><ele>663</ele><time>2010-08-01T14:12:36Z</time></trkpt>
<trkpt lat="50.236575" lon="11.481548"><ele>663</ele><time>2010-08-01T14:12:37Z</time></trkpt>
<trkpt lat="50.235883" lon="11.482746"><ele>664</ele><time>2010-08-01T14:12:42Z</time></trkpt>
<trkpt lat="50.235560" lon="11.483141"><ele>665</ele><time>2010-08-01T14:12:44Z</time></trkpt>
<trkpt lat="50.235230" lon="11.483448"><ele>664</ele><time>2010-08-01T14:12:46Z</time></trkpt>
<trkpt lat="50.234902" lon="11.483575"><ele>665</ele><time>2010-08-01T14:12:48Z</time></trkpt>
<trkpt lat="50.234693" lon="11.483593"><ele>664</ele><time>2010-08-01T14:12:49Z</time></trkpt>
<trkpt lat="50.234441" lon="11.483559"><ele>664</ele><time>2010-08-01T14:12:50Z</time></trkpt>
<trkpt lat="50.234229" lon="11.483487"><ele>663</ele><time>2010-08-01T14:12:51Z</time></trkpt>
<trkpt lat="50.234042" lon="11.483382"><ele>663</ele><time>2010-08-01T14:12:52Z</time></trkpt>
<trkpt lat="50.233665" lon="11.483121"><ele>661</ele><time>2010-08-01T14:12:54Z</time></trkpt>
<trkpt lat="50.233319" lon="11.483051"><ele>660</ele><time>2010-08-01T14:12:56Z</time></trkpt>
<trkpt lat="50.233175" lon="11.483102"><ele>659</ele><time>2010-08-01T14:12:57Z</time></trkpt>
<trkpt lat="50.232897" lon="11.483504"><ele>655</ele><time>2010-08-01T14:13:00Z</time></trkpt>
<trkpt lat="50.232833" lon="11.483702"><ele>651</ele><time>2010-08-01T14:13:01Z</time></trkpt>
<trkpt lat="50.232828" lon="11.483981"><ele>651</ele><time>2010-08-01T14:13:02Z</time></trkpt>
<trkpt lat="50.232885" lon="11.484209"><ele>649</ele><time>2010-08-01T14:13:03Z</time></trkpt>
<trkpt lat="50.232927" lon="11.484402"><ele>647</ele><time>2010-08-01T14:13:04Z</time></trkpt>
<trkpt lat="50.232997" lon="11.484719"><ele>642</ele><time>2010-08-01T14:13:06Z</time></trkpt>
<trkpt lat="50.233009" lon="11.484811"><ele>641</ele><time>2010-08-01T14:13:07Z</time></trkpt>
<trkpt lat="50.233039" lon="11.484872"><ele>639</ele><time>2010-08-01T14:13:08Z</time></trkpt>
<trkpt lat="50.233088" lon="11.484918"><ele>638</ele><time>2010-08-01T14:13:10Z</time></trkpt>
<trkpt lat="50.233102" lon="11.484910"><ele>637</ele><time>2010-08-01T14:13:12Z</time></trkpt>
<trkpt lat="50.233100" lon="11.484908"><ele>637</ele><time>2010-08-01T14:13:14Z</time></trkpt>
<trkpt lat="50.233107" lon="11.484860"><ele>638</ele><time>2010-08-01T14:13:16Z</time></trkpt>
<trkpt lat="50.233108" lon="11.484860"><ele>638</ele><time>2010-08-01T14:13:17Z</time></trkpt>
<trkpt lat="50.233135" lon="11.484869"><ele>638</ele><time>2010-08-01T14:13:57Z</time></trkpt>
<trkpt lat="50.233140" lon="11.484861"><ele>638</ele><time>2010-08-01T14:13:59Z</time></trkpt>
<trkpt lat="50.233147" lon="11.484813"><ele>637</ele><time>2010-08-01T14:14:04Z</time></trkpt>
<trkpt lat="50.233148" lon="11.484812"><ele>637</ele><time>2010-08-01T14:14:05Z</time></trkpt>
<trkpt lat="50.233157" lon="11.484832"><ele>638</ele><time>2010-08-01T14:14:31Z</time></trkpt>
<trkpt lat="50.233159" lon="11.484743"><ele>635</ele><time>2010-08-01T14:15:50Z</time></trkpt>
<trkpt lat="50.233159" lon="11.484743"><ele>635</ele><time>2010-08-01T14:15:52Z</time></trkpt>
<trkpt lat="50.233159" lon="11.484743"><ele>635</ele><time>2010-08-01T14:16:12Z</time></trkpt>
<trkpt lat="50.233178" lon="11.484748"><ele>632</ele><time>2010-08-01T14:16:19Z</time></trkpt>
<trkpt lat="50.233175" lon="11.484762"><ele>630</ele><time>2010-08-01T14:16:20Z</time></trkpt>
<trkpt lat="50.233168" lon="11.484773"><ele>631</ele><time>2010-08-01T14:16:23Z</time></trkpt>
<trkpt lat="50.233159" lon="11.484785"><ele>633</ele><time>2010-08-01T14:16:26Z</time></trkpt>
</trkseg></trk></gpx>
